<?xml version="1.0" encoding="UTF-8" standalone="no" ?>
<gpx xmlns="http://www.topografix.com/GPX/1/1" xmlns:xsi="http://www.w3.org/2001/XMLSchema-instance" xsi:schemaLocation="http://www.topografix.com/GPX/1/1 http://www.topografix.com/GPX/1/1/gpx.xsd" version="1.1" creator="VisuGPX - https://www.visugpx.com">
  <metadata>
    <name>20 km berges aquantis carrefour aquantis</name>
    <desc><![CDATA[sortie 20 km, départ parking aquantis]]></desc>
  </metadata>
  <trk>
    <name><![CDATA[20 km berges aquantis carrefour aquantis_1]]></name>
    <trkseg>
      <trkpt lat="45.30305" lon="5.59962">
        <ele>185.4</ele>
        <time>2011-03-18T14:27:44Z</time>
      </trkpt>
      <trkpt lat="45.30305" lon="5.5996">
        <ele>185.4</ele>
        <time>2011-03-18T14:27:49Z</time>
      </trkpt>
      <trkpt lat="45.30302" lon="5.59982">
        <ele>185</ele>
        <time>2011-03-18T14:27:54Z</time>
      </trkpt>
      <trkpt lat="45.30306" lon="5.60005">
        <ele>185.5</ele>
        <time>2011-03-18T14:27:59Z</time>
      </trkpt>
      <trkpt lat="45.30305" lon="5.60024">
        <ele>186.7</ele>
        <time>2011-03-18T14:28:04Z</time>
      </trkpt>
      <trkpt lat="45.30299" lon="5.60046">
        <ele>187</ele>
        <time>2011-03-18T14:28:09Z</time>
      </trkpt>
      <trkpt lat="45.30302" lon="5.60066">
        <ele>187.6</ele>
        <time>2011-03-18T14:28:14Z</time>
      </trkpt>
      <trkpt lat="45.30307" lon="5.60084">
        <ele>188.1</ele>
        <time>2011-03-18T14:28:19Z</time>
      </trkpt>
      <trkpt lat="45.30308" lon="5.60105">
        <ele>188.8</ele>
        <time>2011-03-18T14:28:24Z</time>
      </trkpt>
      <trkpt lat="45.30309" lon="5.60126">
        <ele>189.5</ele>
        <time>2011-03-18T14:28:29Z</time>
      </trkpt>
      <trkpt lat="45.30308" lon="5.60148">
        <ele>190.3</ele>
        <time>2011-03-18T14:28:34Z</time>
      </trkpt>
      <trkpt lat="45.30309" lon="5.60169">
        <ele>190.9</ele>
        <time>2011-03-18T14:28:39Z</time>
      </trkpt>
      <trkpt lat="45.30304" lon="5.60189">
        <ele>191.5</ele>
        <time>2011-03-18T14:28:44Z</time>
      </trkpt>
      <trkpt lat="45.30295" lon="5.60212">
        <ele>189.8</ele>
        <time>2011-03-18T14:28:49Z</time>
      </trkpt>
      <trkpt lat="45.30295" lon="5.60236">
        <ele>190</ele>
        <time>2011-03-18T14:28:54Z</time>
      </trkpt>
      <trkpt lat="45.30291" lon="5.60264">
        <ele>189.1</ele>
        <time>2011-03-18T14:28:59Z</time>
      </trkpt>
      <trkpt lat="45.3029" lon="5.60283">
        <ele>189</ele>
        <time>2011-03-18T14:29:04Z</time>
      </trkpt>
      <trkpt lat="45.30288" lon="5.60304">
        <ele>188.3</ele>
        <time>2011-03-18T14:29:09Z</time>
      </trkpt>
      <trkpt lat="45.30288" lon="5.6033">
        <ele>188.3</ele>
        <time>2011-03-18T14:29:14Z</time>
      </trkpt>
      <trkpt lat="45.30286" lon="5.60349">
        <ele>187.6</ele>
        <time>2011-03-18T14:29:19Z</time>
      </trkpt>
      <trkpt lat="45.30287" lon="5.60373">
        <ele>187.7</ele>
        <time>2011-03-18T14:29:24Z</time>
      </trkpt>
      <trkpt lat="45.30285" lon="5.6039">
        <ele>186.8</ele>
        <time>2011-03-18T14:29:29Z</time>
      </trkpt>
      <trkpt lat="45.30286" lon="5.60412">
        <ele>187.1</ele>
        <time>2011-03-18T14:29:34Z</time>
      </trkpt>
      <trkpt lat="45.30276" lon="5.60439">
        <ele>187.4</ele>
        <time>2011-03-18T14:29:39Z</time>
      </trkpt>
      <trkpt lat="45.30275" lon="5.60456">
        <ele>188.8</ele>
        <time>2011-03-18T14:29:44Z</time>
      </trkpt>
      <trkpt lat="45.3027" lon="5.60483">
        <ele>189.9</ele>
        <time>2011-03-18T14:29:49Z</time>
      </trkpt>
      <trkpt lat="45.3027" lon="5.605">
        <ele>190.7</ele>
        <time>2011-03-18T14:29:54Z</time>
      </trkpt>
      <trkpt lat="45.30267" lon="5.6052">
        <ele>190.4</ele>
        <time>2011-03-18T14:29:59Z</time>
      </trkpt>
      <trkpt lat="45.30252" lon="5.60533">
        <ele>185.8</ele>
        <time>2011-03-18T14:30:04Z</time>
      </trkpt>
      <trkpt lat="45.30243" lon="5.60537">
        <ele>185.2</ele>
        <time>2011-03-18T14:30:09Z</time>
      </trkpt>
      <trkpt lat="45.30226" lon="5.60544">
        <ele>185.1</ele>
        <time>2011-03-18T14:30:14Z</time>
      </trkpt>
      <trkpt lat="45.30213" lon="5.60548">
        <ele>185</ele>
        <time>2011-03-18T14:30:19Z</time>
      </trkpt>
      <trkpt lat="45.30239" lon="5.60554">
        <ele>185.6</ele>
        <time>2011-03-18T14:30:24Z</time>
      </trkpt>
      <trkpt lat="45.30254" lon="5.60569">
        <ele>188.3</ele>
        <time>2011-03-18T14:30:29Z</time>
      </trkpt>
      <trkpt lat="45.3026" lon="5.60588">
        <ele>190.5</ele>
        <time>2011-03-18T14:30:34Z</time>
      </trkpt>
      <trkpt lat="45.30259" lon="5.60614">
        <ele>190.8</ele>
        <time>2011-03-18T14:30:39Z</time>
      </trkpt>
      <trkpt lat="45.30255" lon="5.60632">
        <ele>191.9</ele>
        <time>2011-03-18T14:30:44Z</time>
      </trkpt>
      <trkpt lat="45.30251" lon="5.60654">
        <ele>193.4</ele>
        <time>2011-03-18T14:30:49Z</time>
      </trkpt>
      <trkpt lat="45.30249" lon="5.60676">
        <ele>193</ele>
        <time>2011-03-18T14:30:54Z</time>
      </trkpt>
      <trkpt lat="45.30245" lon="5.60696">
        <ele>191.1</ele>
        <time>2011-03-18T14:30:59Z</time>
      </trkpt>
      <trkpt lat="45.30234" lon="5.60721">
        <ele>190.1</ele>
        <time>2011-03-18T14:31:04Z</time>
      </trkpt>
      <trkpt lat="45.30229" lon="5.60735">
        <ele>191.8</ele>
        <time>2011-03-18T14:31:09Z</time>
      </trkpt>
      <trkpt lat="45.30225" lon="5.60754">
        <ele>193.3</ele>
        <time>2011-03-18T14:31:14Z</time>
      </trkpt>
      <trkpt lat="45.30223" lon="5.60773">
        <ele>190.8</ele>
        <time>2011-03-18T14:31:19Z</time>
      </trkpt>
      <trkpt lat="45.30213" lon="5.60791">
        <ele>190.5</ele>
        <time>2011-03-18T14:31:24Z</time>
      </trkpt>
      <trkpt lat="45.30194" lon="5.6082">
        <ele>192.9</ele>
        <time>2011-03-18T14:31:29Z</time>
      </trkpt>
      <trkpt lat="45.3019" lon="5.60835">
        <ele>191.9</ele>
        <time>2011-03-18T14:31:34Z</time>
      </trkpt>
      <trkpt lat="45.3019" lon="5.60856">
        <ele>189.3</ele>
        <time>2011-03-18T14:31:39Z</time>
      </trkpt>
      <trkpt lat="45.30181" lon="5.60876">
        <ele>191.6</ele>
        <time>2011-03-18T14:31:44Z</time>
      </trkpt>
      <trkpt lat="45.30171" lon="5.60895">
        <ele>193.2</ele>
        <time>2011-03-18T14:31:49Z</time>
      </trkpt>
      <trkpt lat="45.30163" lon="5.60914">
        <ele>190.9</ele>
        <time>2011-03-18T14:31:54Z</time>
      </trkpt>
      <trkpt lat="45.30153" lon="5.60934">
        <ele>190.6</ele>
        <time>2011-03-18T14:31:59Z</time>
      </trkpt>
      <trkpt lat="45.30152" lon="5.60952">
        <ele>191.6</ele>
        <time>2011-03-18T14:32:04Z</time>
      </trkpt>
      <trkpt lat="45.30147" lon="5.60973">
        <ele>192.9</ele>
        <time>2011-03-18T14:32:09Z</time>
      </trkpt>
      <trkpt lat="45.30137" lon="5.60993">
        <ele>190.1</ele>
        <time>2011-03-18T14:32:14Z</time>
      </trkpt>
      <trkpt lat="45.3012" lon="5.61014">
        <ele>191.8</ele>
        <time>2011-03-18T14:32:19Z</time>
      </trkpt>
      <trkpt lat="45.30107" lon="5.61034">
        <ele>191.5</ele>
        <time>2011-03-18T14:32:24Z</time>
      </trkpt>
      <trkpt lat="45.30102" lon="5.61054">
        <ele>190.3</ele>
        <time>2011-03-18T14:32:29Z</time>
      </trkpt>
      <trkpt lat="45.30092" lon="5.61073">
        <ele>191.5</ele>
        <time>2011-03-18T14:32:34Z</time>
      </trkpt>
      <trkpt lat="45.30085" lon="5.61092">
        <ele>192.9</ele>
        <time>2011-03-18T14:32:39Z</time>
      </trkpt>
      <trkpt lat="45.30077" lon="5.61115">
        <ele>192.3</ele>
        <time>2011-03-18T14:32:44Z</time>
      </trkpt>
      <trkpt lat="45.30074" lon="5.61131">
        <ele>191.4</ele>
        <time>2011-03-18T14:32:49Z</time>
      </trkpt>
      <trkpt lat="45.30074" lon="5.61153">
        <ele>191.4</ele>
        <time>2011-03-18T14:32:54Z</time>
      </trkpt>
      <trkpt lat="45.30064" lon="5.61169">
        <ele>192.3</ele>
        <time>2011-03-18T14:32:59Z</time>
      </trkpt>
      <trkpt lat="45.30052" lon="5.6119">
        <ele>191.5</ele>
        <time>2011-03-18T14:33:04Z</time>
      </trkpt>
      <trkpt lat="45.30036" lon="5.61215">
        <ele>192.7</ele>
        <time>2011-03-18T14:33:09Z</time>
      </trkpt>
      <trkpt lat="45.30035" lon="5.61231">
        <ele>192.7</ele>
        <time>2011-03-18T14:33:14Z</time>
      </trkpt>
      <trkpt lat="45.30032" lon="5.61253">
        <ele>191.9</ele>
        <time>2011-03-18T14:33:19Z</time>
      </trkpt>
      <trkpt lat="45.30025" lon="5.61268">
        <ele>190.9</ele>
        <time>2011-03-18T14:33:24Z</time>
      </trkpt>
      <trkpt lat="45.30011" lon="5.61286">
        <ele>191.9</ele>
        <time>2011-03-18T14:33:29Z</time>
      </trkpt>
      <trkpt lat="45.29996" lon="5.61307">
        <ele>191.8</ele>
        <time>2011-03-18T14:33:34Z</time>
      </trkpt>
      <trkpt lat="45.2998" lon="5.61326">
        <ele>191.7</ele>
        <time>2011-03-18T14:33:39Z</time>
      </trkpt>
      <trkpt lat="45.29973" lon="5.61348">
        <ele>192.5</ele>
        <time>2011-03-18T14:33:44Z</time>
      </trkpt>
      <trkpt lat="45.29968" lon="5.6136">
        <ele>191.9</ele>
        <time>2011-03-18T14:33:49Z</time>
      </trkpt>
      <trkpt lat="45.29958" lon="5.61375">
        <ele>191.5</ele>
        <time>2011-03-18T14:33:54Z</time>
      </trkpt>
      <trkpt lat="45.2995" lon="5.61391">
        <ele>192.2</ele>
        <time>2011-03-18T14:33:59Z</time>
      </trkpt>
      <trkpt lat="45.29944" lon="5.61406">
        <ele>190.6</ele>
        <time>2011-03-18T14:34:04Z</time>
      </trkpt>
      <trkpt lat="45.29931" lon="5.61419">
        <ele>190.9</ele>
        <time>2011-03-18T14:34:09Z</time>
      </trkpt>
      <trkpt lat="45.29918" lon="5.61433">
        <ele>190.7</ele>
        <time>2011-03-18T14:34:14Z</time>
      </trkpt>
      <trkpt lat="45.29905" lon="5.61446">
        <ele>190.8</ele>
        <time>2011-03-18T14:34:19Z</time>
      </trkpt>
      <trkpt lat="45.29887" lon="5.61458">
        <ele>191.1</ele>
        <time>2011-03-18T14:34:24Z</time>
      </trkpt>
      <trkpt lat="45.29876" lon="5.61471">
        <ele>191.4</ele>
        <time>2011-03-18T14:34:29Z</time>
      </trkpt>
      <trkpt lat="45.29862" lon="5.61488">
        <ele>191.7</ele>
        <time>2011-03-18T14:34:34Z</time>
      </trkpt>
      <trkpt lat="45.29852" lon="5.61499">
        <ele>191</ele>
        <time>2011-03-18T14:34:39Z</time>
      </trkpt>
      <trkpt lat="45.29847" lon="5.61513">
        <ele>191</ele>
        <time>2011-03-18T14:34:44Z</time>
      </trkpt>
      <trkpt lat="45.29824" lon="5.61528">
        <ele>190.8</ele>
        <time>2011-03-18T14:34:49Z</time>
      </trkpt>
      <trkpt lat="45.29813" lon="5.6154">
        <ele>191.6</ele>
        <time>2011-03-18T14:34:54Z</time>
      </trkpt>
      <trkpt lat="45.29786" lon="5.61562">
        <ele>191.7</ele>
        <time>2011-03-18T14:34:59Z</time>
      </trkpt>
      <trkpt lat="45.29777" lon="5.61568">
        <ele>191.7</ele>
        <time>2011-03-18T14:35:04Z</time>
      </trkpt>
      <trkpt lat="45.2977" lon="5.6158">
        <ele>191.1</ele>
        <time>2011-03-18T14:35:09Z</time>
      </trkpt>
      <trkpt lat="45.29762" lon="5.61592">
        <ele>191.1</ele>
        <time>2011-03-18T14:35:14Z</time>
      </trkpt>
      <trkpt lat="45.29742" lon="5.61608">
        <ele>191.6</ele>
        <time>2011-03-18T14:35:19Z</time>
      </trkpt>
      <trkpt lat="45.29731" lon="5.61621">
        <ele>191.9</ele>
        <time>2011-03-18T14:35:24Z</time>
      </trkpt>
      <trkpt lat="45.29725" lon="5.61627">
        <ele>191.4</ele>
        <time>2011-03-18T14:35:29Z</time>
      </trkpt>
      <trkpt lat="45.29711" lon="5.61637">
        <ele>191.7</ele>
        <time>2011-03-18T14:35:34Z</time>
      </trkpt>
      <trkpt lat="45.29698" lon="5.61647">
        <ele>192.8</ele>
        <time>2011-03-18T14:35:39Z</time>
      </trkpt>
      <trkpt lat="45.29694" lon="5.61657">
        <ele>191.2</ele>
        <time>2011-03-18T14:35:44Z</time>
      </trkpt>
      <trkpt lat="45.29678" lon="5.61672">
        <ele>191.6</ele>
        <time>2011-03-18T14:35:49Z</time>
      </trkpt>
      <trkpt lat="45.29665" lon="5.61683">
        <ele>191.8</ele>
        <time>2011-03-18T14:35:54Z</time>
      </trkpt>
      <trkpt lat="45.29643" lon="5.61699">
        <ele>192.2</ele>
        <time>2011-03-18T14:35:59Z</time>
      </trkpt>
      <trkpt lat="45.29613" lon="5.61713">
        <ele>192.8</ele>
        <time>2011-03-18T14:36:04Z</time>
      </trkpt>
      <trkpt lat="45.29605" lon="5.61718">
        <ele>193</ele>
        <time>2011-03-18T14:36:09Z</time>
      </trkpt>
      <trkpt lat="45.29589" lon="5.61723">
        <ele>194.3</ele>
        <time>2011-03-18T14:36:14Z</time>
      </trkpt>
      <trkpt lat="45.29576" lon="5.61727">
        <ele>194.1</ele>
        <time>2011-03-18T14:36:19Z</time>
      </trkpt>
      <trkpt lat="45.29565" lon="5.61729">
        <ele>193.7</ele>
        <time>2011-03-18T14:36:24Z</time>
      </trkpt>
      <trkpt lat="45.29553" lon="5.61732">
        <ele>193.2</ele>
        <time>2011-03-18T14:36:29Z</time>
      </trkpt>
      <trkpt lat="45.2953" lon="5.61741">
        <ele>192</ele>
        <time>2011-03-18T14:36:34Z</time>
      </trkpt>
      <trkpt lat="45.29503" lon="5.61746">
        <ele>191.6</ele>
        <time>2011-03-18T14:36:39Z</time>
      </trkpt>
      <trkpt lat="45.29497" lon="5.61745">
        <ele>192</ele>
        <time>2011-03-18T14:36:44Z</time>
      </trkpt>
      <trkpt lat="45.2948" lon="5.61748">
        <ele>192.7</ele>
        <time>2011-03-18T14:36:49Z</time>
      </trkpt>
      <trkpt lat="45.29478" lon="5.61746">
        <ele>193</ele>
        <time>2011-03-18T14:36:54Z</time>
      </trkpt>
      <trkpt lat="45.29453" lon="5.6175">
        <ele>193</ele>
        <time>2011-03-18T14:36:59Z</time>
      </trkpt>
      <trkpt lat="45.29441" lon="5.61754">
        <ele>193.1</ele>
        <time>2011-03-18T14:37:04Z</time>
      </trkpt>
      <trkpt lat="45.2943" lon="5.61755">
        <ele>193.6</ele>
        <time>2011-03-18T14:37:09Z</time>
      </trkpt>
      <trkpt lat="45.29414" lon="5.61761">
        <ele>193.3</ele>
        <time>2011-03-18T14:37:14Z</time>
      </trkpt>
      <trkpt lat="45.29402" lon="5.61765">
        <ele>192.3</ele>
        <time>2011-03-18T14:37:19Z</time>
      </trkpt>
      <trkpt lat="45.29386" lon="5.61767">
        <ele>191.4</ele>
        <time>2011-03-18T14:37:24Z</time>
      </trkpt>
      <trkpt lat="45.2936" lon="5.61773">
        <ele>191.6</ele>
        <time>2011-03-18T14:37:29Z</time>
      </trkpt>
      <trkpt lat="45.29337" lon="5.61781">
        <ele>193.6</ele>
        <time>2011-03-18T14:37:34Z</time>
      </trkpt>
      <trkpt lat="45.29326" lon="5.61782">
        <ele>193.8</ele>
        <time>2011-03-18T14:37:39Z</time>
      </trkpt>
      <trkpt lat="45.29313" lon="5.61785">
        <ele>193.2</ele>
        <time>2011-03-18T14:37:44Z</time>
      </trkpt>
      <trkpt lat="45.29301" lon="5.61789">
        <ele>192.4</ele>
        <time>2011-03-18T14:37:49Z</time>
      </trkpt>
      <trkpt lat="45.29283" lon="5.61793">
        <ele>191.8</ele>
        <time>2011-03-18T14:37:54Z</time>
      </trkpt>
      <trkpt lat="45.29265" lon="5.618">
        <ele>193</ele>
        <time>2011-03-18T14:37:59Z</time>
      </trkpt>
      <trkpt lat="45.29248" lon="5.61806">
        <ele>195.9</ele>
        <time>2011-03-18T14:38:04Z</time>
      </trkpt>
      <trkpt lat="45.29236" lon="5.61809">
        <ele>195.9</ele>
        <time>2011-03-18T14:38:09Z</time>
      </trkpt>
      <trkpt lat="45.2922" lon="5.61812">
        <ele>195.9</ele>
        <time>2011-03-18T14:38:14Z</time>
      </trkpt>
      <trkpt lat="45.29206" lon="5.61813">
        <ele>196</ele>
        <time>2011-03-18T14:38:19Z</time>
      </trkpt>
      <trkpt lat="45.29187" lon="5.61819">
        <ele>196.7</ele>
        <time>2011-03-18T14:38:24Z</time>
      </trkpt>
      <trkpt lat="45.2917" lon="5.6182">
        <ele>196.6</ele>
        <time>2011-03-18T14:38:29Z</time>
      </trkpt>
      <trkpt lat="45.29157" lon="5.61822">
        <ele>196.1</ele>
        <time>2011-03-18T14:38:34Z</time>
      </trkpt>
      <trkpt lat="45.29141" lon="5.61824">
        <ele>195.1</ele>
        <time>2011-03-18T14:38:39Z</time>
      </trkpt>
      <trkpt lat="45.29127" lon="5.61828">
        <ele>195.4</ele>
        <time>2011-03-18T14:38:44Z</time>
      </trkpt>
      <trkpt lat="45.29114" lon="5.61831">
        <ele>195.7</ele>
        <time>2011-03-18T14:38:49Z</time>
      </trkpt>
      <trkpt lat="45.29097" lon="5.61833">
        <ele>195.5</ele>
        <time>2011-03-18T14:38:54Z</time>
      </trkpt>
      <trkpt lat="45.29085" lon="5.61836">
        <ele>195.4</ele>
        <time>2011-03-18T14:38:59Z</time>
      </trkpt>
      <trkpt lat="45.29069" lon="5.61838">
        <ele>195.8</ele>
        <time>2011-03-18T14:39:04Z</time>
      </trkpt>
      <trkpt lat="45.29053" lon="5.61841">
        <ele>196</ele>
        <time>2011-03-18T14:39:09Z</time>
      </trkpt>
      <trkpt lat="45.29041" lon="5.61845">
        <ele>196</ele>
        <time>2011-03-18T14:39:14Z</time>
      </trkpt>
      <trkpt lat="45.29037" lon="5.61848">
        <ele>196.5</ele>
        <time>2011-03-18T14:39:19Z</time>
      </trkpt>
      <trkpt lat="45.29025" lon="5.6185">
        <ele>196.4</ele>
        <time>2011-03-18T14:39:24Z</time>
      </trkpt>
      <trkpt lat="45.29008" lon="5.61854">
        <ele>196</ele>
        <time>2011-03-18T14:39:29Z</time>
      </trkpt>
      <trkpt lat="45.28993" lon="5.61855">
        <ele>195.4</ele>
        <time>2011-03-18T14:39:34Z</time>
      </trkpt>
      <trkpt lat="45.28978" lon="5.61859">
        <ele>195.6</ele>
        <time>2011-03-18T14:39:39Z</time>
      </trkpt>
      <trkpt lat="45.28962" lon="5.61864">
        <ele>195.9</ele>
        <time>2011-03-18T14:39:44Z</time>
      </trkpt>
      <trkpt lat="45.28946" lon="5.61867">
        <ele>195.9</ele>
        <time>2011-03-18T14:39:49Z</time>
      </trkpt>
      <trkpt lat="45.28931" lon="5.6187">
        <ele>195.7</ele>
        <time>2011-03-18T14:39:54Z</time>
      </trkpt>
      <trkpt lat="45.28916" lon="5.61874">
        <ele>195.7</ele>
        <time>2011-03-18T14:39:59Z</time>
      </trkpt>
      <trkpt lat="45.289" lon="5.61876">
        <ele>195.4</ele>
        <time>2011-03-18T14:40:04Z</time>
      </trkpt>
      <trkpt lat="45.28883" lon="5.61879">
        <ele>195.3</ele>
        <time>2011-03-18T14:40:09Z</time>
      </trkpt>
      <trkpt lat="45.28869" lon="5.61883">
        <ele>195.8</ele>
        <time>2011-03-18T14:40:14Z</time>
      </trkpt>
      <trkpt lat="45.28854" lon="5.61887">
        <ele>196.3</ele>
        <time>2011-03-18T14:40:19Z</time>
      </trkpt>
      <trkpt lat="45.28838" lon="5.61891">
        <ele>196.3</ele>
        <time>2011-03-18T14:40:24Z</time>
      </trkpt>
      <trkpt lat="45.28824" lon="5.61894">
        <ele>196.3</ele>
        <time>2011-03-18T14:40:29Z</time>
      </trkpt>
      <trkpt lat="45.28806" lon="5.61898">
        <ele>196.3</ele>
        <time>2011-03-18T14:40:34Z</time>
      </trkpt>
      <trkpt lat="45.28793" lon="5.619">
        <ele>196.6</ele>
        <time>2011-03-18T14:40:39Z</time>
      </trkpt>
      <trkpt lat="45.28774" lon="5.61904">
        <ele>196.8</ele>
        <time>2011-03-18T14:40:44Z</time>
      </trkpt>
      <trkpt lat="45.28761" lon="5.61909">
        <ele>196.5</ele>
        <time>2011-03-18T14:40:49Z</time>
      </trkpt>
      <trkpt lat="45.28748" lon="5.61912">
        <ele>196</ele>
        <time>2011-03-18T14:40:54Z</time>
      </trkpt>
      <trkpt lat="45.28732" lon="5.61915">
        <ele>196.6</ele>
        <time>2011-03-18T14:40:59Z</time>
      </trkpt>
      <trkpt lat="45.28717" lon="5.61918">
        <ele>196.5</ele>
        <time>2011-03-18T14:41:04Z</time>
      </trkpt>
      <trkpt lat="45.28699" lon="5.61923">
        <ele>195.2</ele>
        <time>2011-03-18T14:41:09Z</time>
      </trkpt>
      <trkpt lat="45.28688" lon="5.61926">
        <ele>195.1</ele>
        <time>2011-03-18T14:41:14Z</time>
      </trkpt>
      <trkpt lat="45.28672" lon="5.61929">
        <ele>195</ele>
        <time>2011-03-18T14:41:19Z</time>
      </trkpt>
      <trkpt lat="45.28655" lon="5.61936">
        <ele>195.6</ele>
        <time>2011-03-18T14:41:24Z</time>
      </trkpt>
      <trkpt lat="45.28644" lon="5.61938">
        <ele>195.7</ele>
        <time>2011-03-18T14:41:29Z</time>
      </trkpt>
      <trkpt lat="45.28627" lon="5.61943">
        <ele>196.6</ele>
        <time>2011-03-18T14:41:34Z</time>
      </trkpt>
      <trkpt lat="45.28615" lon="5.61949">
        <ele>196.9</ele>
        <time>2011-03-18T14:41:39Z</time>
      </trkpt>
      <trkpt lat="45.28597" lon="5.61956">
        <ele>195.3</ele>
        <time>2011-03-18T14:41:44Z</time>
      </trkpt>
      <trkpt lat="45.28581" lon="5.61961">
        <ele>194</ele>
        <time>2011-03-18T14:41:49Z</time>
      </trkpt>
      <trkpt lat="45.28569" lon="5.61966">
        <ele>194.2</ele>
        <time>2011-03-18T14:41:54Z</time>
      </trkpt>
      <trkpt lat="45.28552" lon="5.61969">
        <ele>194.8</ele>
        <time>2011-03-18T14:41:59Z</time>
      </trkpt>
      <trkpt lat="45.28541" lon="5.61973">
        <ele>195.4</ele>
        <time>2011-03-18T14:42:04Z</time>
      </trkpt>
      <trkpt lat="45.28528" lon="5.61979">
        <ele>195</ele>
        <time>2011-03-18T14:42:09Z</time>
      </trkpt>
      <trkpt lat="45.28511" lon="5.61984">
        <ele>194.3</ele>
        <time>2011-03-18T14:42:14Z</time>
      </trkpt>
      <trkpt lat="45.28494" lon="5.61984">
        <ele>194.2</ele>
        <time>2011-03-18T14:42:19Z</time>
      </trkpt>
      <trkpt lat="45.28473" lon="5.61991">
        <ele>193.6</ele>
        <time>2011-03-18T14:42:24Z</time>
      </trkpt>
      <trkpt lat="45.28461" lon="5.61993">
        <ele>194</ele>
        <time>2011-03-18T14:42:29Z</time>
      </trkpt>
      <trkpt lat="45.28448" lon="5.61994">
        <ele>194.6</ele>
        <time>2011-03-18T14:42:34Z</time>
      </trkpt>
      <trkpt lat="45.28432" lon="5.61997">
        <ele>194</ele>
        <time>2011-03-18T14:42:39Z</time>
      </trkpt>
      <trkpt lat="45.28419" lon="5.61997">
        <ele>193</ele>
        <time>2011-03-18T14:42:44Z</time>
      </trkpt>
      <trkpt lat="45.28401" lon="5.62001">
        <ele>194.6</ele>
        <time>2011-03-18T14:42:49Z</time>
      </trkpt>
      <trkpt lat="45.28388" lon="5.62002">
        <ele>195.6</ele>
        <time>2011-03-18T14:42:54Z</time>
      </trkpt>
      <trkpt lat="45.2837" lon="5.62007">
        <ele>195</ele>
        <time>2011-03-18T14:42:59Z</time>
      </trkpt>
      <trkpt lat="45.28354" lon="5.62014">
        <ele>193.9</ele>
        <time>2011-03-18T14:43:04Z</time>
      </trkpt>
      <trkpt lat="45.28339" lon="5.62015">
        <ele>193.5</ele>
        <time>2011-03-18T14:43:09Z</time>
      </trkpt>
      <trkpt lat="45.28327" lon="5.62018">
        <ele>193.2</ele>
        <time>2011-03-18T14:43:14Z</time>
      </trkpt>
      <trkpt lat="45.28313" lon="5.62018">
        <ele>193.3</ele>
        <time>2011-03-18T14:43:19Z</time>
      </trkpt>
      <trkpt lat="45.28298" lon="5.62021">
        <ele>193.3</ele>
        <time>2011-03-18T14:43:24Z</time>
      </trkpt>
      <trkpt lat="45.28282" lon="5.62022">
        <ele>193.5</ele>
        <time>2011-03-18T14:43:29Z</time>
      </trkpt>
      <trkpt lat="45.28268" lon="5.62027">
        <ele>194.3</ele>
        <time>2011-03-18T14:43:34Z</time>
      </trkpt>
      <trkpt lat="45.28251" lon="5.6203">
        <ele>194.8</ele>
        <time>2011-03-18T14:43:39Z</time>
      </trkpt>
      <trkpt lat="45.28234" lon="5.62031">
        <ele>195.6</ele>
        <time>2011-03-18T14:43:44Z</time>
      </trkpt>
      <trkpt lat="45.28218" lon="5.62035">
        <ele>195.4</ele>
        <time>2011-03-18T14:43:49Z</time>
      </trkpt>
      <trkpt lat="45.28204" lon="5.62039">
        <ele>194.8</ele>
        <time>2011-03-18T14:43:54Z</time>
      </trkpt>
      <trkpt lat="45.28188" lon="5.62041">
        <ele>194.2</ele>
        <time>2011-03-18T14:43:59Z</time>
      </trkpt>
      <trkpt lat="45.28173" lon="5.62045">
        <ele>193.3</ele>
        <time>2011-03-18T14:44:04Z</time>
      </trkpt>
      <trkpt lat="45.28155" lon="5.62048">
        <ele>193.8</ele>
        <time>2011-03-18T14:44:09Z</time>
      </trkpt>
      <trkpt lat="45.28137" lon="5.62052">
        <ele>195.5</ele>
        <time>2011-03-18T14:44:14Z</time>
      </trkpt>
      <trkpt lat="45.28123" lon="5.62053">
        <ele>196.1</ele>
        <time>2011-03-18T14:44:19Z</time>
      </trkpt>
      <trkpt lat="45.28107" lon="5.62056">
        <ele>196.7</ele>
        <time>2011-03-18T14:44:24Z</time>
      </trkpt>
      <trkpt lat="45.28092" lon="5.62059">
        <ele>196</ele>
        <time>2011-03-18T14:44:29Z</time>
      </trkpt>
      <trkpt lat="45.28076" lon="5.62065">
        <ele>195.3</ele>
        <time>2011-03-18T14:44:34Z</time>
      </trkpt>
      <trkpt lat="45.28058" lon="5.62067">
        <ele>195.2</ele>
        <time>2011-03-18T14:44:39Z</time>
      </trkpt>
      <trkpt lat="45.28046" lon="5.62068">
        <ele>195</ele>
        <time>2011-03-18T14:44:44Z</time>
      </trkpt>
      <trkpt lat="45.28032" lon="5.62071">
        <ele>194.4</ele>
        <time>2011-03-18T14:44:49Z</time>
      </trkpt>
      <trkpt lat="45.28015" lon="5.62074">
        <ele>194.2</ele>
        <time>2011-03-18T14:44:54Z</time>
      </trkpt>
      <trkpt lat="45.28" lon="5.62074">
        <ele>194.3</ele>
        <time>2011-03-18T14:44:59Z</time>
      </trkpt>
      <trkpt lat="45.27983" lon="5.62073">
        <ele>195.4</ele>
        <time>2011-03-18T14:45:04Z</time>
      </trkpt>
      <trkpt lat="45.27971" lon="5.62074">
        <ele>195.9</ele>
        <time>2011-03-18T14:45:09Z</time>
      </trkpt>
      <trkpt lat="45.27955" lon="5.62076">
        <ele>194.9</ele>
        <time>2011-03-18T14:45:14Z</time>
      </trkpt>
      <trkpt lat="45.2794" lon="5.62076">
        <ele>194.3</ele>
        <time>2011-03-18T14:45:19Z</time>
      </trkpt>
      <trkpt lat="45.27927" lon="5.62078">
        <ele>194.2</ele>
        <time>2011-03-18T14:45:24Z</time>
      </trkpt>
      <trkpt lat="45.27909" lon="5.62078">
        <ele>194.4</ele>
        <time>2011-03-18T14:45:29Z</time>
      </trkpt>
      <trkpt lat="45.27895" lon="5.62081">
        <ele>194.7</ele>
        <time>2011-03-18T14:45:34Z</time>
      </trkpt>
      <trkpt lat="45.2788" lon="5.62079">
        <ele>194.6</ele>
        <time>2011-03-18T14:45:39Z</time>
      </trkpt>
      <trkpt lat="45.27863" lon="5.62081">
        <ele>194.1</ele>
        <time>2011-03-18T14:45:44Z</time>
      </trkpt>
      <trkpt lat="45.27849" lon="5.62083">
        <ele>194.4</ele>
        <time>2011-03-18T14:45:49Z</time>
      </trkpt>
      <trkpt lat="45.27827" lon="5.62089">
        <ele>195</ele>
        <time>2011-03-18T14:45:54Z</time>
      </trkpt>
      <trkpt lat="45.27815" lon="5.62091">
        <ele>195.2</ele>
        <time>2011-03-18T14:45:59Z</time>
      </trkpt>
      <trkpt lat="45.27802" lon="5.62091">
        <ele>195.6</ele>
        <time>2011-03-18T14:46:04Z</time>
      </trkpt>
      <trkpt lat="45.27786" lon="5.62093">
        <ele>195.8</ele>
        <time>2011-03-18T14:46:09Z</time>
      </trkpt>
      <trkpt lat="45.2777" lon="5.62096">
        <ele>195.7</ele>
        <time>2011-03-18T14:46:14Z</time>
      </trkpt>
      <trkpt lat="45.27752" lon="5.62101">
        <ele>195.1</ele>
        <time>2011-03-18T14:46:19Z</time>
      </trkpt>
      <trkpt lat="45.2774" lon="5.62104">
        <ele>195.6</ele>
        <time>2011-03-18T14:46:24Z</time>
      </trkpt>
      <trkpt lat="45.27728" lon="5.62105">
        <ele>196.8</ele>
        <time>2011-03-18T14:46:29Z</time>
      </trkpt>
      <trkpt lat="45.27713" lon="5.62107">
        <ele>197.5</ele>
        <time>2011-03-18T14:46:34Z</time>
      </trkpt>
      <trkpt lat="45.27695" lon="5.62113">
        <ele>198</ele>
        <time>2011-03-18T14:46:39Z</time>
      </trkpt>
      <trkpt lat="45.27678" lon="5.6212">
        <ele>198</ele>
        <time>2011-03-18T14:46:44Z</time>
      </trkpt>
      <trkpt lat="45.27665" lon="5.62126">
        <ele>198</ele>
        <time>2011-03-18T14:46:49Z</time>
      </trkpt>
      <trkpt lat="45.2765" lon="5.6213">
        <ele>198.4</ele>
        <time>2011-03-18T14:46:54Z</time>
      </trkpt>
      <trkpt lat="45.27638" lon="5.62129">
        <ele>198.6</ele>
        <time>2011-03-18T14:46:59Z</time>
      </trkpt>
      <trkpt lat="45.27623" lon="5.62133">
        <ele>198.2</ele>
        <time>2011-03-18T14:47:04Z</time>
      </trkpt>
      <trkpt lat="45.27606" lon="5.62139">
        <ele>198</ele>
        <time>2011-03-18T14:47:09Z</time>
      </trkpt>
      <trkpt lat="45.27595" lon="5.62142">
        <ele>197.7</ele>
        <time>2011-03-18T14:47:14Z</time>
      </trkpt>
      <trkpt lat="45.27579" lon="5.62142">
        <ele>197.7</ele>
        <time>2011-03-18T14:47:19Z</time>
      </trkpt>
      <trkpt lat="45.27564" lon="5.62147">
        <ele>197</ele>
        <time>2011-03-18T14:47:24Z</time>
      </trkpt>
      <trkpt lat="45.27547" lon="5.62149">
        <ele>196.5</ele>
        <time>2011-03-18T14:47:29Z</time>
      </trkpt>
      <trkpt lat="45.2753" lon="5.62154">
        <ele>195.4</ele>
        <time>2011-03-18T14:47:34Z</time>
      </trkpt>
      <trkpt lat="45.27514" lon="5.62156">
        <ele>195</ele>
        <time>2011-03-18T14:47:39Z</time>
      </trkpt>
      <trkpt lat="45.27498" lon="5.62154">
        <ele>195.2</ele>
        <time>2011-03-18T14:47:44Z</time>
      </trkpt>
      <trkpt lat="45.27483" lon="5.62151">
        <ele>195.5</ele>
        <time>2011-03-18T14:47:49Z</time>
      </trkpt>
      <trkpt lat="45.27469" lon="5.62148">
        <ele>195.7</ele>
        <time>2011-03-18T14:47:54Z</time>
      </trkpt>
      <trkpt lat="45.27454" lon="5.62146">
        <ele>196</ele>
        <time>2011-03-18T14:47:59Z</time>
      </trkpt>
      <trkpt lat="45.2744" lon="5.62151">
        <ele>195.2</ele>
        <time>2011-03-18T14:48:04Z</time>
      </trkpt>
      <trkpt lat="45.27425" lon="5.62158">
        <ele>194.2</ele>
        <time>2011-03-18T14:48:09Z</time>
      </trkpt>
      <trkpt lat="45.27409" lon="5.62161">
        <ele>194</ele>
        <time>2011-03-18T14:48:14Z</time>
      </trkpt>
      <trkpt lat="45.27395" lon="5.62158">
        <ele>194.8</ele>
        <time>2011-03-18T14:48:19Z</time>
      </trkpt>
      <trkpt lat="45.27376" lon="5.6216">
        <ele>195.1</ele>
        <time>2011-03-18T14:48:24Z</time>
      </trkpt>
      <trkpt lat="45.27364" lon="5.62162">
        <ele>195.2</ele>
        <time>2011-03-18T14:48:29Z</time>
      </trkpt>
      <trkpt lat="45.27345" lon="5.62167">
        <ele>196.7</ele>
        <time>2011-03-18T14:48:34Z</time>
      </trkpt>
      <trkpt lat="45.27335" lon="5.6217">
        <ele>197.3</ele>
        <time>2011-03-18T14:48:39Z</time>
      </trkpt>
      <trkpt lat="45.2732" lon="5.62175">
        <ele>197</ele>
        <time>2011-03-18T14:48:44Z</time>
      </trkpt>
      <trkpt lat="45.27303" lon="5.62184">
        <ele>196</ele>
        <time>2011-03-18T14:48:49Z</time>
      </trkpt>
      <trkpt lat="45.27292" lon="5.62192">
        <ele>195.7</ele>
        <time>2011-03-18T14:48:54Z</time>
      </trkpt>
      <trkpt lat="45.27275" lon="5.62205">
        <ele>195.7</ele>
        <time>2011-03-18T14:48:59Z</time>
      </trkpt>
      <trkpt lat="45.27264" lon="5.6221">
        <ele>195.8</ele>
        <time>2011-03-18T14:49:04Z</time>
      </trkpt>
      <trkpt lat="45.27248" lon="5.62217">
        <ele>196.5</ele>
        <time>2011-03-18T14:49:09Z</time>
      </trkpt>
      <trkpt lat="45.27228" lon="5.62224">
        <ele>198.3</ele>
        <time>2011-03-18T14:49:14Z</time>
      </trkpt>
      <trkpt lat="45.27214" lon="5.62226">
        <ele>198.5</ele>
        <time>2011-03-18T14:49:19Z</time>
      </trkpt>
      <trkpt lat="45.27198" lon="5.62226">
        <ele>198.2</ele>
        <time>2011-03-18T14:49:24Z</time>
      </trkpt>
      <trkpt lat="45.27185" lon="5.62229">
        <ele>197.5</ele>
        <time>2011-03-18T14:49:29Z</time>
      </trkpt>
      <trkpt lat="45.27171" lon="5.62233">
        <ele>196.9</ele>
        <time>2011-03-18T14:49:34Z</time>
      </trkpt>
      <trkpt lat="45.27154" lon="5.62242">
        <ele>196.6</ele>
        <time>2011-03-18T14:49:39Z</time>
      </trkpt>
      <trkpt lat="45.27146" lon="5.62247">
        <ele>196.3</ele>
        <time>2011-03-18T14:49:44Z</time>
      </trkpt>
      <trkpt lat="45.27132" lon="5.62258">
        <ele>196.7</ele>
        <time>2011-03-18T14:49:49Z</time>
      </trkpt>
      <trkpt lat="45.27122" lon="5.62269">
        <ele>197.5</ele>
        <time>2011-03-18T14:49:54Z</time>
      </trkpt>
      <trkpt lat="45.27112" lon="5.62283">
        <ele>198.3</ele>
        <time>2011-03-18T14:49:59Z</time>
      </trkpt>
      <trkpt lat="45.27094" lon="5.623">
        <ele>198.6</ele>
        <time>2011-03-18T14:50:04Z</time>
      </trkpt>
      <trkpt lat="45.27078" lon="5.62309">
        <ele>198.8</ele>
        <time>2011-03-18T14:50:09Z</time>
      </trkpt>
      <trkpt lat="45.2706" lon="5.62318">
        <ele>198.5</ele>
        <time>2011-03-18T14:50:14Z</time>
      </trkpt>
      <trkpt lat="45.27051" lon="5.6232">
        <ele>198.2</ele>
        <time>2011-03-18T14:50:19Z</time>
      </trkpt>
      <trkpt lat="45.27038" lon="5.62324">
        <ele>197.6</ele>
        <time>2011-03-18T14:50:24Z</time>
      </trkpt>
      <trkpt lat="45.27022" lon="5.62333">
        <ele>197.9</ele>
        <time>2011-03-18T14:50:29Z</time>
      </trkpt>
      <trkpt lat="45.27007" lon="5.62338">
        <ele>197.7</ele>
        <time>2011-03-18T14:50:34Z</time>
      </trkpt>
      <trkpt lat="45.26995" lon="5.62346">
        <ele>197.3</ele>
        <time>2011-03-18T14:50:39Z</time>
      </trkpt>
      <trkpt lat="45.2698" lon="5.62356">
        <ele>197.4</ele>
        <time>2011-03-18T14:50:44Z</time>
      </trkpt>
      <trkpt lat="45.26966" lon="5.62364">
        <ele>197.5</ele>
        <time>2011-03-18T14:50:49Z</time>
      </trkpt>
      <trkpt lat="45.26954" lon="5.62368">
        <ele>196.8</ele>
        <time>2011-03-18T14:50:54Z</time>
      </trkpt>
      <trkpt lat="45.26939" lon="5.62382">
        <ele>196.4</ele>
        <time>2011-03-18T14:50:59Z</time>
      </trkpt>
      <trkpt lat="45.26922" lon="5.62397">
        <ele>196.8</ele>
        <time>2011-03-18T14:51:04Z</time>
      </trkpt>
      <trkpt lat="45.26911" lon="5.62404">
        <ele>196.2</ele>
        <time>2011-03-18T14:51:09Z</time>
      </trkpt>
      <trkpt lat="45.26899" lon="5.62413">
        <ele>196.7</ele>
        <time>2011-03-18T14:51:14Z</time>
      </trkpt>
      <trkpt lat="45.26885" lon="5.62425">
        <ele>196.9</ele>
        <time>2011-03-18T14:51:19Z</time>
      </trkpt>
      <trkpt lat="45.26872" lon="5.62437">
        <ele>196.5</ele>
        <time>2011-03-18T14:51:24Z</time>
      </trkpt>
      <trkpt lat="45.26858" lon="5.6245">
        <ele>197.1</ele>
        <time>2011-03-18T14:51:29Z</time>
      </trkpt>
      <trkpt lat="45.26846" lon="5.62462">
        <ele>196.2</ele>
        <time>2011-03-18T14:51:34Z</time>
      </trkpt>
      <trkpt lat="45.26833" lon="5.62472">
        <ele>198</ele>
        <time>2011-03-18T14:51:39Z</time>
      </trkpt>
      <trkpt lat="45.26819" lon="5.62486">
        <ele>196.3</ele>
        <time>2011-03-18T14:51:44Z</time>
      </trkpt>
      <trkpt lat="45.26805" lon="5.625">
        <ele>197.9</ele>
        <time>2011-03-18T14:51:49Z</time>
      </trkpt>
      <trkpt lat="45.26792" lon="5.62511">
        <ele>196.4</ele>
        <time>2011-03-18T14:51:54Z</time>
      </trkpt>
      <trkpt lat="45.26781" lon="5.6252">
        <ele>196.5</ele>
        <time>2011-03-18T14:51:59Z</time>
      </trkpt>
      <trkpt lat="45.26767" lon="5.62532">
        <ele>196.8</ele>
        <time>2011-03-18T14:52:04Z</time>
      </trkpt>
      <trkpt lat="45.26755" lon="5.62544">
        <ele>196.7</ele>
        <time>2011-03-18T14:52:09Z</time>
      </trkpt>
      <trkpt lat="45.26744" lon="5.62551">
        <ele>196.8</ele>
        <time>2011-03-18T14:52:14Z</time>
      </trkpt>
      <trkpt lat="45.26729" lon="5.62561">
        <ele>197</ele>
        <time>2011-03-18T14:52:19Z</time>
      </trkpt>
      <trkpt lat="45.2672" lon="5.62571">
        <ele>197.3</ele>
        <time>2011-03-18T14:52:24Z</time>
      </trkpt>
      <trkpt lat="45.26709" lon="5.62586">
        <ele>196.6</ele>
        <time>2011-03-18T14:52:29Z</time>
      </trkpt>
      <trkpt lat="45.26704" lon="5.62596">
        <ele>196.5</ele>
        <time>2011-03-18T14:52:34Z</time>
      </trkpt>
      <trkpt lat="45.26693" lon="5.62614">
        <ele>197.6</ele>
        <time>2011-03-18T14:52:39Z</time>
      </trkpt>
      <trkpt lat="45.26683" lon="5.62628">
        <ele>196.7</ele>
        <time>2011-03-18T14:52:44Z</time>
      </trkpt>
      <trkpt lat="45.26675" lon="5.62641">
        <ele>197.7</ele>
        <time>2011-03-18T14:52:49Z</time>
      </trkpt>
      <trkpt lat="45.26661" lon="5.62656">
        <ele>197.6</ele>
        <time>2011-03-18T14:52:54Z</time>
      </trkpt>
      <trkpt lat="45.26651" lon="5.62666">
        <ele>198.1</ele>
        <time>2011-03-18T14:52:59Z</time>
      </trkpt>
      <trkpt lat="45.26635" lon="5.62681">
        <ele>198.6</ele>
        <time>2011-03-18T14:53:04Z</time>
      </trkpt>
      <trkpt lat="45.26611" lon="5.62701">
        <ele>198.7</ele>
        <time>2011-03-18T14:53:09Z</time>
      </trkpt>
      <trkpt lat="45.266" lon="5.62709">
        <ele>198.2</ele>
        <time>2011-03-18T14:53:14Z</time>
      </trkpt>
      <trkpt lat="45.26588" lon="5.6272">
        <ele>199.3</ele>
        <time>2011-03-18T14:53:19Z</time>
      </trkpt>
      <trkpt lat="45.26578" lon="5.62729">
        <ele>199</ele>
        <time>2011-03-18T14:53:24Z</time>
      </trkpt>
      <trkpt lat="45.26566" lon="5.62738">
        <ele>198.5</ele>
        <time>2011-03-18T14:53:29Z</time>
      </trkpt>
      <trkpt lat="45.26551" lon="5.62748">
        <ele>199.4</ele>
        <time>2011-03-18T14:53:34Z</time>
      </trkpt>
      <trkpt lat="45.26543" lon="5.62758">
        <ele>199.2</ele>
        <time>2011-03-18T14:53:39Z</time>
      </trkpt>
      <trkpt lat="45.26527" lon="5.62771">
        <ele>199.4</ele>
        <time>2011-03-18T14:53:44Z</time>
      </trkpt>
      <trkpt lat="45.26515" lon="5.62782">
        <ele>199.2</ele>
        <time>2011-03-18T14:53:49Z</time>
      </trkpt>
      <trkpt lat="45.26508" lon="5.6279">
        <ele>199.4</ele>
        <time>2011-03-18T14:53:54Z</time>
      </trkpt>
      <trkpt lat="45.26494" lon="5.62803">
        <ele>199.8</ele>
        <time>2011-03-18T14:53:59Z</time>
      </trkpt>
      <trkpt lat="45.26478" lon="5.62817">
        <ele>198.7</ele>
        <time>2011-03-18T14:54:04Z</time>
      </trkpt>
      <trkpt lat="45.26464" lon="5.62834">
        <ele>198.9</ele>
        <time>2011-03-18T14:54:09Z</time>
      </trkpt>
      <trkpt lat="45.26455" lon="5.62843">
        <ele>198.2</ele>
        <time>2011-03-18T14:54:14Z</time>
      </trkpt>
      <trkpt lat="45.26445" lon="5.62858">
        <ele>199.6</ele>
        <time>2011-03-18T14:54:19Z</time>
      </trkpt>
      <trkpt lat="45.26433" lon="5.62872">
        <ele>199</ele>
        <time>2011-03-18T14:54:24Z</time>
      </trkpt>
      <trkpt lat="45.26419" lon="5.62887">
        <ele>199.8</ele>
        <time>2011-03-18T14:54:29Z</time>
      </trkpt>
      <trkpt lat="45.26407" lon="5.62904">
        <ele>199.2</ele>
        <time>2011-03-18T14:54:34Z</time>
      </trkpt>
      <trkpt lat="45.26401" lon="5.62915">
        <ele>199.8</ele>
        <time>2011-03-18T14:54:39Z</time>
      </trkpt>
      <trkpt lat="45.26389" lon="5.62931">
        <ele>200</ele>
        <time>2011-03-18T14:54:44Z</time>
      </trkpt>
      <trkpt lat="45.26378" lon="5.62942">
        <ele>199.1</ele>
        <time>2011-03-18T14:54:49Z</time>
      </trkpt>
      <trkpt lat="45.26369" lon="5.62955">
        <ele>199</ele>
        <time>2011-03-18T14:54:54Z</time>
      </trkpt>
      <trkpt lat="45.26358" lon="5.62969">
        <ele>199.5</ele>
        <time>2011-03-18T14:54:59Z</time>
      </trkpt>
      <trkpt lat="45.26344" lon="5.62984">
        <ele>199.5</ele>
        <time>2011-03-18T14:55:04Z</time>
      </trkpt>
      <trkpt lat="45.26328" lon="5.63">
        <ele>199.9</ele>
        <time>2011-03-18T14:55:09Z</time>
      </trkpt>
      <trkpt lat="45.26317" lon="5.63014">
        <ele>199.4</ele>
        <time>2011-03-18T14:55:14Z</time>
      </trkpt>
      <trkpt lat="45.26308" lon="5.63029">
        <ele>200.9</ele>
        <time>2011-03-18T14:55:19Z</time>
      </trkpt>
      <trkpt lat="45.26292" lon="5.63047">
        <ele>199.5</ele>
        <time>2011-03-18T14:55:24Z</time>
      </trkpt>
      <trkpt lat="45.26285" lon="5.63056">
        <ele>200</ele>
        <time>2011-03-18T14:55:29Z</time>
      </trkpt>
      <trkpt lat="45.26275" lon="5.63068">
        <ele>200.2</ele>
        <time>2011-03-18T14:55:34Z</time>
      </trkpt>
      <trkpt lat="45.26258" lon="5.63086">
        <ele>199.7</ele>
        <time>2011-03-18T14:55:39Z</time>
      </trkpt>
      <trkpt lat="45.26249" lon="5.63096">
        <ele>199.8</ele>
        <time>2011-03-18T14:55:44Z</time>
      </trkpt>
      <trkpt lat="45.26238" lon="5.6311">
        <ele>200</ele>
        <time>2011-03-18T14:55:49Z</time>
      </trkpt>
      <trkpt lat="45.26225" lon="5.63124">
        <ele>200.4</ele>
        <time>2011-03-18T14:55:54Z</time>
      </trkpt>
      <trkpt lat="45.26216" lon="5.63134">
        <ele>200.6</ele>
        <time>2011-03-18T14:55:59Z</time>
      </trkpt>
      <trkpt lat="45.26206" lon="5.63147">
        <ele>200</ele>
        <time>2011-03-18T14:56:04Z</time>
      </trkpt>
      <trkpt lat="45.26195" lon="5.6316">
        <ele>200.3</ele>
        <time>2011-03-18T14:56:09Z</time>
      </trkpt>
      <trkpt lat="45.26185" lon="5.63175">
        <ele>199.9</ele>
        <time>2011-03-18T14:56:14Z</time>
      </trkpt>
      <trkpt lat="45.26171" lon="5.63191">
        <ele>199.9</ele>
        <time>2011-03-18T14:56:19Z</time>
      </trkpt>
      <trkpt lat="45.26155" lon="5.63212">
        <ele>200.2</ele>
        <time>2011-03-18T14:56:24Z</time>
      </trkpt>
      <trkpt lat="45.26147" lon="5.63226">
        <ele>200.7</ele>
        <time>2011-03-18T14:56:29Z</time>
      </trkpt>
      <trkpt lat="45.26138" lon="5.63236">
        <ele>200.9</ele>
        <time>2011-03-18T14:56:34Z</time>
      </trkpt>
      <trkpt lat="45.26125" lon="5.63252">
        <ele>200.5</ele>
        <time>2011-03-18T14:56:39Z</time>
      </trkpt>
      <trkpt lat="45.26116" lon="5.63264">
        <ele>200.3</ele>
        <time>2011-03-18T14:56:44Z</time>
      </trkpt>
      <trkpt lat="45.26105" lon="5.63281">
        <ele>200.6</ele>
        <time>2011-03-18T14:56:49Z</time>
      </trkpt>
      <trkpt lat="45.26099" lon="5.6329">
        <ele>200.7</ele>
        <time>2011-03-18T14:56:54Z</time>
      </trkpt>
      <trkpt lat="45.26092" lon="5.63302">
        <ele>201.4</ele>
        <time>2011-03-18T14:56:59Z</time>
      </trkpt>
      <trkpt lat="45.2608" lon="5.63317">
        <ele>201.7</ele>
        <time>2011-03-18T14:57:04Z</time>
      </trkpt>
      <trkpt lat="45.26072" lon="5.63328">
        <ele>201.1</ele>
        <time>2011-03-18T14:57:09Z</time>
      </trkpt>
      <trkpt lat="45.26055" lon="5.63347">
        <ele>201</ele>
        <time>2011-03-18T14:57:14Z</time>
      </trkpt>
      <trkpt lat="45.26042" lon="5.63364">
        <ele>201</ele>
        <time>2011-03-18T14:57:19Z</time>
      </trkpt>
      <trkpt lat="45.26026" lon="5.63376">
        <ele>201</ele>
        <time>2011-03-18T14:57:24Z</time>
      </trkpt>
      <trkpt lat="45.26012" lon="5.63391">
        <ele>200.9</ele>
        <time>2011-03-18T14:57:29Z</time>
      </trkpt>
      <trkpt lat="45.26004" lon="5.634">
        <ele>200.8</ele>
        <time>2011-03-18T14:57:34Z</time>
      </trkpt>
      <trkpt lat="45.25987" lon="5.63416">
        <ele>200.5</ele>
        <time>2011-03-18T14:57:39Z</time>
      </trkpt>
      <trkpt lat="45.25978" lon="5.63426">
        <ele>200.4</ele>
        <time>2011-03-18T14:57:44Z</time>
      </trkpt>
      <trkpt lat="45.25969" lon="5.63439">
        <ele>201.1</ele>
        <time>2011-03-18T14:57:49Z</time>
      </trkpt>
      <trkpt lat="45.25958" lon="5.63455">
        <ele>200.9</ele>
        <time>2011-03-18T14:57:54Z</time>
      </trkpt>
      <trkpt lat="45.25948" lon="5.63475">
        <ele>201.2</ele>
        <time>2011-03-18T14:57:59Z</time>
      </trkpt>
      <trkpt lat="45.25933" lon="5.63489">
        <ele>200.6</ele>
        <time>2011-03-18T14:58:04Z</time>
      </trkpt>
      <trkpt lat="45.25927" lon="5.635">
        <ele>200.7</ele>
        <time>2011-03-18T14:58:09Z</time>
      </trkpt>
      <trkpt lat="45.25912" lon="5.63511">
        <ele>200.4</ele>
        <time>2011-03-18T14:58:14Z</time>
      </trkpt>
      <trkpt lat="45.25901" lon="5.63523">
        <ele>200.4</ele>
        <time>2011-03-18T14:58:19Z</time>
      </trkpt>
      <trkpt lat="45.25889" lon="5.63537">
        <ele>200.7</ele>
        <time>2011-03-18T14:58:24Z</time>
      </trkpt>
      <trkpt lat="45.2588" lon="5.6355">
        <ele>200.8</ele>
        <time>2011-03-18T14:58:29Z</time>
      </trkpt>
      <trkpt lat="45.25871" lon="5.63563">
        <ele>201</ele>
        <time>2011-03-18T14:58:34Z</time>
      </trkpt>
      <trkpt lat="45.25858" lon="5.6358">
        <ele>201.3</ele>
        <time>2011-03-18T14:58:39Z</time>
      </trkpt>
      <trkpt lat="45.2585" lon="5.6359">
        <ele>201</ele>
        <time>2011-03-18T14:58:44Z</time>
      </trkpt>
      <trkpt lat="45.25839" lon="5.63604">
        <ele>201.2</ele>
        <time>2011-03-18T14:58:49Z</time>
      </trkpt>
      <trkpt lat="45.25823" lon="5.63621">
        <ele>200.7</ele>
        <time>2011-03-18T14:58:54Z</time>
      </trkpt>
      <trkpt lat="45.25814" lon="5.63632">
        <ele>200.6</ele>
        <time>2011-03-18T14:58:59Z</time>
      </trkpt>
      <trkpt lat="45.258" lon="5.6365">
        <ele>200.6</ele>
        <time>2011-03-18T14:59:04Z</time>
      </trkpt>
      <trkpt lat="45.25786" lon="5.63663">
        <ele>200.7</ele>
        <time>2011-03-18T14:59:09Z</time>
      </trkpt>
      <trkpt lat="45.25772" lon="5.63677">
        <ele>200.3</ele>
        <time>2011-03-18T14:59:14Z</time>
      </trkpt>
      <trkpt lat="45.25766" lon="5.63695">
        <ele>200.2</ele>
        <time>2011-03-18T14:59:19Z</time>
      </trkpt>
      <trkpt lat="45.25753" lon="5.63707">
        <ele>200</ele>
        <time>2011-03-18T14:59:24Z</time>
      </trkpt>
      <trkpt lat="45.2574" lon="5.63721">
        <ele>200.1</ele>
        <time>2011-03-18T14:59:29Z</time>
      </trkpt>
      <trkpt lat="45.25729" lon="5.63735">
        <ele>200.4</ele>
        <time>2011-03-18T14:59:34Z</time>
      </trkpt>
      <trkpt lat="45.25721" lon="5.63747">
        <ele>201.5</ele>
        <time>2011-03-18T14:59:39Z</time>
      </trkpt>
      <trkpt lat="45.2571" lon="5.63761">
        <ele>200.3</ele>
        <time>2011-03-18T14:59:44Z</time>
      </trkpt>
      <trkpt lat="45.25699" lon="5.63777">
        <ele>200.8</ele>
        <time>2011-03-18T14:59:49Z</time>
      </trkpt>
      <trkpt lat="45.25688" lon="5.63791">
        <ele>200.5</ele>
        <time>2011-03-18T14:59:54Z</time>
      </trkpt>
      <trkpt lat="45.25678" lon="5.63808">
        <ele>200.4</ele>
        <time>2011-03-18T14:59:59Z</time>
      </trkpt>
      <trkpt lat="45.25664" lon="5.63824">
        <ele>200.9</ele>
        <time>2011-03-18T15:00:04Z</time>
      </trkpt>
      <trkpt lat="45.25648" lon="5.63844">
        <ele>199.8</ele>
        <time>2011-03-18T15:00:09Z</time>
      </trkpt>
      <trkpt lat="45.25637" lon="5.63858">
        <ele>200.3</ele>
        <time>2011-03-18T15:00:14Z</time>
      </trkpt>
      <trkpt lat="45.2563" lon="5.63877">
        <ele>199.8</ele>
        <time>2011-03-18T15:00:19Z</time>
      </trkpt>
      <trkpt lat="45.25624" lon="5.63891">
        <ele>199.4</ele>
        <time>2011-03-18T15:00:24Z</time>
      </trkpt>
      <trkpt lat="45.25613" lon="5.63908">
        <ele>199.5</ele>
        <time>2011-03-18T15:00:29Z</time>
      </trkpt>
      <trkpt lat="45.25606" lon="5.63928">
        <ele>199.9</ele>
        <time>2011-03-18T15:00:34Z</time>
      </trkpt>
      <trkpt lat="45.25598" lon="5.63946">
        <ele>199.6</ele>
        <time>2011-03-18T15:00:39Z</time>
      </trkpt>
      <trkpt lat="45.25589" lon="5.63968">
        <ele>199.8</ele>
        <time>2011-03-18T15:00:44Z</time>
      </trkpt>
      <trkpt lat="45.25585" lon="5.63984">
        <ele>200.4</ele>
        <time>2011-03-18T15:00:49Z</time>
      </trkpt>
      <trkpt lat="45.25581" lon="5.64001">
        <ele>200.7</ele>
        <time>2011-03-18T15:00:54Z</time>
      </trkpt>
      <trkpt lat="45.25575" lon="5.64019">
        <ele>200.4</ele>
        <time>2011-03-18T15:00:59Z</time>
      </trkpt>
      <trkpt lat="45.25565" lon="5.64037">
        <ele>199.9</ele>
        <time>2011-03-18T15:01:04Z</time>
      </trkpt>
      <trkpt lat="45.25556" lon="5.64059">
        <ele>201.3</ele>
        <time>2011-03-18T15:01:09Z</time>
      </trkpt>
      <trkpt lat="45.25551" lon="5.64076">
        <ele>201.5</ele>
        <time>2011-03-18T15:01:14Z</time>
      </trkpt>
      <trkpt lat="45.25543" lon="5.64093">
        <ele>200.6</ele>
        <time>2011-03-18T15:01:19Z</time>
      </trkpt>
      <trkpt lat="45.25535" lon="5.64111">
        <ele>201.2</ele>
        <time>2011-03-18T15:01:24Z</time>
      </trkpt>
      <trkpt lat="45.25527" lon="5.64126">
        <ele>201.5</ele>
        <time>2011-03-18T15:01:29Z</time>
      </trkpt>
      <trkpt lat="45.25517" lon="5.64148">
        <ele>200.7</ele>
        <time>2011-03-18T15:01:34Z</time>
      </trkpt>
      <trkpt lat="45.25512" lon="5.64165">
        <ele>200.8</ele>
        <time>2011-03-18T15:01:39Z</time>
      </trkpt>
      <trkpt lat="45.25508" lon="5.64182">
        <ele>201.3</ele>
        <time>2011-03-18T15:01:44Z</time>
      </trkpt>
      <trkpt lat="45.25498" lon="5.64197">
        <ele>202.6</ele>
        <time>2011-03-18T15:01:49Z</time>
      </trkpt>
      <trkpt lat="45.25492" lon="5.64214">
        <ele>201.8</ele>
        <time>2011-03-18T15:01:54Z</time>
      </trkpt>
      <trkpt lat="45.25481" lon="5.6423">
        <ele>201.4</ele>
        <time>2011-03-18T15:01:59Z</time>
      </trkpt>
      <trkpt lat="45.25466" lon="5.64245">
        <ele>202</ele>
        <time>2011-03-18T15:02:04Z</time>
      </trkpt>
      <trkpt lat="45.25457" lon="5.64264">
        <ele>201.9</ele>
        <time>2011-03-18T15:02:09Z</time>
      </trkpt>
      <trkpt lat="45.25446" lon="5.64287">
        <ele>202.6</ele>
        <time>2011-03-18T15:02:14Z</time>
      </trkpt>
      <trkpt lat="45.25435" lon="5.643">
        <ele>202.1</ele>
        <time>2011-03-18T15:02:19Z</time>
      </trkpt>
      <trkpt lat="45.25424" lon="5.64315">
        <ele>201.7</ele>
        <time>2011-03-18T15:02:24Z</time>
      </trkpt>
      <trkpt lat="45.25414" lon="5.6433">
        <ele>203</ele>
        <time>2011-03-18T15:02:29Z</time>
      </trkpt>
      <trkpt lat="45.25401" lon="5.64345">
        <ele>201.4</ele>
        <time>2011-03-18T15:02:34Z</time>
      </trkpt>
      <trkpt lat="45.25392" lon="5.64361">
        <ele>202.6</ele>
        <time>2011-03-18T15:02:39Z</time>
      </trkpt>
      <trkpt lat="45.25379" lon="5.64376">
        <ele>201</ele>
        <time>2011-03-18T15:02:44Z</time>
      </trkpt>
      <trkpt lat="45.25359" lon="5.64392">
        <ele>200.6</ele>
        <time>2011-03-18T15:02:49Z</time>
      </trkpt>
      <trkpt lat="45.25351" lon="5.64403">
        <ele>199.6</ele>
        <time>2011-03-18T15:02:54Z</time>
      </trkpt>
      <trkpt lat="45.25341" lon="5.64414">
        <ele>199.8</ele>
        <time>2011-03-18T15:02:59Z</time>
      </trkpt>
      <trkpt lat="45.2533" lon="5.6443">
        <ele>200</ele>
        <time>2011-03-18T15:03:04Z</time>
      </trkpt>
      <trkpt lat="45.25322" lon="5.64447">
        <ele>200.2</ele>
        <time>2011-03-18T15:03:09Z</time>
      </trkpt>
      <trkpt lat="45.25306" lon="5.64467">
        <ele>200.6</ele>
        <time>2011-03-18T15:03:14Z</time>
      </trkpt>
      <trkpt lat="45.25298" lon="5.64477">
        <ele>199.8</ele>
        <time>2011-03-18T15:03:19Z</time>
      </trkpt>
      <trkpt lat="45.2529" lon="5.64491">
        <ele>199.3</ele>
        <time>2011-03-18T15:03:24Z</time>
      </trkpt>
      <trkpt lat="45.25279" lon="5.64503">
        <ele>199.6</ele>
        <time>2011-03-18T15:03:29Z</time>
      </trkpt>
      <trkpt lat="45.25268" lon="5.64516">
        <ele>198.1</ele>
        <time>2011-03-18T15:03:34Z</time>
      </trkpt>
      <trkpt lat="45.25254" lon="5.64531">
        <ele>200.1</ele>
        <time>2011-03-18T15:03:39Z</time>
      </trkpt>
      <trkpt lat="45.25245" lon="5.64544">
        <ele>199.4</ele>
        <time>2011-03-18T15:03:44Z</time>
      </trkpt>
      <trkpt lat="45.25234" lon="5.64559">
        <ele>199</ele>
        <time>2011-03-18T15:03:49Z</time>
      </trkpt>
      <trkpt lat="45.2522" lon="5.64576">
        <ele>200.1</ele>
        <time>2011-03-18T15:03:54Z</time>
      </trkpt>
      <trkpt lat="45.25202" lon="5.64594">
        <ele>200</ele>
        <time>2011-03-18T15:03:59Z</time>
      </trkpt>
      <trkpt lat="45.25197" lon="5.64605">
        <ele>201.2</ele>
        <time>2011-03-18T15:04:04Z</time>
      </trkpt>
      <trkpt lat="45.25187" lon="5.64617">
        <ele>201</ele>
        <time>2011-03-18T15:04:09Z</time>
      </trkpt>
      <trkpt lat="45.25174" lon="5.64633">
        <ele>200.9</ele>
        <time>2011-03-18T15:04:14Z</time>
      </trkpt>
      <trkpt lat="45.25167" lon="5.64647">
        <ele>200.7</ele>
        <time>2011-03-18T15:04:19Z</time>
      </trkpt>
      <trkpt lat="45.2516" lon="5.64658">
        <ele>199.9</ele>
        <time>2011-03-18T15:04:24Z</time>
      </trkpt>
      <trkpt lat="45.25144" lon="5.64678">
        <ele>200.6</ele>
        <time>2011-03-18T15:04:29Z</time>
      </trkpt>
      <trkpt lat="45.25135" lon="5.64691">
        <ele>201.3</ele>
        <time>2011-03-18T15:04:34Z</time>
      </trkpt>
      <trkpt lat="45.25123" lon="5.64706">
        <ele>200.7</ele>
        <time>2011-03-18T15:04:39Z</time>
      </trkpt>
      <trkpt lat="45.25116" lon="5.64719">
        <ele>201.3</ele>
        <time>2011-03-18T15:04:44Z</time>
      </trkpt>
      <trkpt lat="45.25103" lon="5.64733">
        <ele>200.7</ele>
        <time>2011-03-18T15:04:49Z</time>
      </trkpt>
      <trkpt lat="45.25087" lon="5.64749">
        <ele>200.9</ele>
        <time>2011-03-18T15:04:54Z</time>
      </trkpt>
      <trkpt lat="45.25079" lon="5.6476">
        <ele>200.5</ele>
        <time>2011-03-18T15:04:59Z</time>
      </trkpt>
      <trkpt lat="45.25069" lon="5.64779">
        <ele>201</ele>
        <time>2011-03-18T15:05:04Z</time>
      </trkpt>
      <trkpt lat="45.25061" lon="5.64792">
        <ele>201.5</ele>
        <time>2011-03-18T15:05:09Z</time>
      </trkpt>
      <trkpt lat="45.25044" lon="5.64806">
        <ele>200.8</ele>
        <time>2011-03-18T15:05:14Z</time>
      </trkpt>
      <trkpt lat="45.25036" lon="5.6482">
        <ele>201.1</ele>
        <time>2011-03-18T15:05:19Z</time>
      </trkpt>
      <trkpt lat="45.25032" lon="5.64835">
        <ele>202.2</ele>
        <time>2011-03-18T15:05:24Z</time>
      </trkpt>
      <trkpt lat="45.25018" lon="5.64852">
        <ele>202</ele>
        <time>2011-03-18T15:05:29Z</time>
      </trkpt>
      <trkpt lat="45.25011" lon="5.64864">
        <ele>202.2</ele>
        <time>2011-03-18T15:05:34Z</time>
      </trkpt>
      <trkpt lat="45.25003" lon="5.64879">
        <ele>202.3</ele>
        <time>2011-03-18T15:05:39Z</time>
      </trkpt>
      <trkpt lat="45.24992" lon="5.64893">
        <ele>202.2</ele>
        <time>2011-03-18T15:05:44Z</time>
      </trkpt>
      <trkpt lat="45.24978" lon="5.64907">
        <ele>202</ele>
        <time>2011-03-18T15:05:49Z</time>
      </trkpt>
      <trkpt lat="45.24957" lon="5.64927">
        <ele>201.4</ele>
        <time>2011-03-18T15:05:54Z</time>
      </trkpt>
      <trkpt lat="45.2495" lon="5.64937">
        <ele>201.6</ele>
        <time>2011-03-18T15:05:59Z</time>
      </trkpt>
      <trkpt lat="45.24939" lon="5.64951">
        <ele>201.4</ele>
        <time>2011-03-18T15:06:04Z</time>
      </trkpt>
      <trkpt lat="45.24928" lon="5.64966">
        <ele>201.7</ele>
        <time>2011-03-18T15:06:09Z</time>
      </trkpt>
      <trkpt lat="45.24921" lon="5.64982">
        <ele>202.7</ele>
        <time>2011-03-18T15:06:14Z</time>
      </trkpt>
      <trkpt lat="45.24907" lon="5.64998">
        <ele>202.7</ele>
        <time>2011-03-18T15:06:19Z</time>
      </trkpt>
      <trkpt lat="45.24899" lon="5.6501">
        <ele>202.3</ele>
        <time>2011-03-18T15:06:24Z</time>
      </trkpt>
      <trkpt lat="45.24885" lon="5.65023">
        <ele>202</ele>
        <time>2011-03-18T15:06:29Z</time>
      </trkpt>
      <trkpt lat="45.24875" lon="5.65038">
        <ele>201.4</ele>
        <time>2011-03-18T15:06:34Z</time>
      </trkpt>
      <trkpt lat="45.24864" lon="5.65053">
        <ele>201.8</ele>
        <time>2011-03-18T15:06:39Z</time>
      </trkpt>
      <trkpt lat="45.24847" lon="5.65069">
        <ele>201</ele>
        <time>2011-03-18T15:06:44Z</time>
      </trkpt>
      <trkpt lat="45.24835" lon="5.65081">
        <ele>201.6</ele>
        <time>2011-03-18T15:06:49Z</time>
      </trkpt>
      <trkpt lat="45.24822" lon="5.651">
        <ele>201.3</ele>
        <time>2011-03-18T15:06:54Z</time>
      </trkpt>
      <trkpt lat="45.24814" lon="5.65116">
        <ele>202</ele>
        <time>2011-03-18T15:06:59Z</time>
      </trkpt>
      <trkpt lat="45.24808" lon="5.65128">
        <ele>202.2</ele>
        <time>2011-03-18T15:07:04Z</time>
      </trkpt>
      <trkpt lat="45.24798" lon="5.65145">
        <ele>201.9</ele>
        <time>2011-03-18T15:07:09Z</time>
      </trkpt>
      <trkpt lat="45.24793" lon="5.65156">
        <ele>202</ele>
        <time>2011-03-18T15:07:14Z</time>
      </trkpt>
      <trkpt lat="45.24787" lon="5.65168">
        <ele>202.6</ele>
        <time>2011-03-18T15:07:19Z</time>
      </trkpt>
      <trkpt lat="45.24776" lon="5.65182">
        <ele>202.7</ele>
        <time>2011-03-18T15:07:24Z</time>
      </trkpt>
      <trkpt lat="45.24764" lon="5.65195">
        <ele>202.5</ele>
        <time>2011-03-18T15:07:29Z</time>
      </trkpt>
      <trkpt lat="45.24749" lon="5.65213">
        <ele>202.6</ele>
        <time>2011-03-18T15:07:34Z</time>
      </trkpt>
      <trkpt lat="45.24734" lon="5.65227">
        <ele>202.3</ele>
        <time>2011-03-18T15:07:39Z</time>
      </trkpt>
      <trkpt lat="45.24726" lon="5.65238">
        <ele>202.4</ele>
        <time>2011-03-18T15:07:44Z</time>
      </trkpt>
      <trkpt lat="45.24711" lon="5.65249">
        <ele>202.5</ele>
        <time>2011-03-18T15:07:49Z</time>
      </trkpt>
      <trkpt lat="45.24693" lon="5.65264">
        <ele>202.4</ele>
        <time>2011-03-18T15:07:54Z</time>
      </trkpt>
      <trkpt lat="45.24679" lon="5.65275">
        <ele>202.8</ele>
        <time>2011-03-18T15:07:59Z</time>
      </trkpt>
      <trkpt lat="45.24664" lon="5.65287">
        <ele>202.6</ele>
        <time>2011-03-18T15:08:04Z</time>
      </trkpt>
      <trkpt lat="45.24651" lon="5.65296">
        <ele>202.3</ele>
        <time>2011-03-18T15:08:09Z</time>
      </trkpt>
      <trkpt lat="45.24638" lon="5.65304">
        <ele>202.9</ele>
        <time>2011-03-18T15:08:14Z</time>
      </trkpt>
      <trkpt lat="45.24628" lon="5.65311">
        <ele>202.6</ele>
        <time>2011-03-18T15:08:19Z</time>
      </trkpt>
      <trkpt lat="45.24612" lon="5.65324">
        <ele>202.7</ele>
        <time>2011-03-18T15:08:24Z</time>
      </trkpt>
      <trkpt lat="45.24597" lon="5.65333">
        <ele>203</ele>
        <time>2011-03-18T15:08:29Z</time>
      </trkpt>
      <trkpt lat="45.24584" lon="5.65342">
        <ele>203</ele>
        <time>2011-03-18T15:08:34Z</time>
      </trkpt>
      <trkpt lat="45.24574" lon="5.6535">
        <ele>202.4</ele>
        <time>2011-03-18T15:08:39Z</time>
      </trkpt>
      <trkpt lat="45.2456" lon="5.65358">
        <ele>202.6</ele>
        <time>2011-03-18T15:08:44Z</time>
      </trkpt>
      <trkpt lat="45.24541" lon="5.65369">
        <ele>202.1</ele>
        <time>2011-03-18T15:08:49Z</time>
      </trkpt>
      <trkpt lat="45.24529" lon="5.65379">
        <ele>202.3</ele>
        <time>2011-03-18T15:08:54Z</time>
      </trkpt>
      <trkpt lat="45.24511" lon="5.65393">
        <ele>202.5</ele>
        <time>2011-03-18T15:08:59Z</time>
      </trkpt>
      <trkpt lat="45.24503" lon="5.65402">
        <ele>202.9</ele>
        <time>2011-03-18T15:09:04Z</time>
      </trkpt>
      <trkpt lat="45.24486" lon="5.65415">
        <ele>203.2</ele>
        <time>2011-03-18T15:09:09Z</time>
      </trkpt>
      <trkpt lat="45.24474" lon="5.65425">
        <ele>203</ele>
        <time>2011-03-18T15:09:14Z</time>
      </trkpt>
      <trkpt lat="45.24467" lon="5.65433">
        <ele>202.7</ele>
        <time>2011-03-18T15:09:19Z</time>
      </trkpt>
      <trkpt lat="45.24452" lon="5.65441">
        <ele>202.7</ele>
        <time>2011-03-18T15:09:24Z</time>
      </trkpt>
      <trkpt lat="45.24439" lon="5.65448">
        <ele>202.7</ele>
        <time>2011-03-18T15:09:29Z</time>
      </trkpt>
      <trkpt lat="45.24426" lon="5.65456">
        <ele>202.5</ele>
        <time>2011-03-18T15:09:34Z</time>
      </trkpt>
      <trkpt lat="45.24412" lon="5.65467">
        <ele>203.1</ele>
        <time>2011-03-18T15:09:39Z</time>
      </trkpt>
      <trkpt lat="45.24399" lon="5.65474">
        <ele>203.3</ele>
        <time>2011-03-18T15:09:44Z</time>
      </trkpt>
      <trkpt lat="45.24386" lon="5.65484">
        <ele>202.7</ele>
        <time>2011-03-18T15:09:49Z</time>
      </trkpt>
      <trkpt lat="45.2437" lon="5.65494">
        <ele>202.2</ele>
        <time>2011-03-18T15:09:54Z</time>
      </trkpt>
      <trkpt lat="45.24357" lon="5.65504">
        <ele>202.6</ele>
        <time>2011-03-18T15:09:59Z</time>
      </trkpt>
      <trkpt lat="45.24343" lon="5.65513">
        <ele>202.2</ele>
        <time>2011-03-18T15:10:04Z</time>
      </trkpt>
      <trkpt lat="45.24329" lon="5.65521">
        <ele>202.5</ele>
        <time>2011-03-18T15:10:09Z</time>
      </trkpt>
      <trkpt lat="45.24314" lon="5.65531">
        <ele>202.1</ele>
        <time>2011-03-18T15:10:14Z</time>
      </trkpt>
      <trkpt lat="45.24302" lon="5.65538">
        <ele>201.7</ele>
        <time>2011-03-18T15:10:19Z</time>
      </trkpt>
      <trkpt lat="45.24286" lon="5.65549">
        <ele>201.8</ele>
        <time>2011-03-18T15:10:24Z</time>
      </trkpt>
      <trkpt lat="45.24271" lon="5.65558">
        <ele>202</ele>
        <time>2011-03-18T15:10:29Z</time>
      </trkpt>
      <trkpt lat="45.24262" lon="5.65569">
        <ele>202.2</ele>
        <time>2011-03-18T15:10:34Z</time>
      </trkpt>
      <trkpt lat="45.24248" lon="5.65582">
        <ele>203.4</ele>
        <time>2011-03-18T15:10:39Z</time>
      </trkpt>
      <trkpt lat="45.24236" lon="5.65592">
        <ele>202.5</ele>
        <time>2011-03-18T15:10:44Z</time>
      </trkpt>
      <trkpt lat="45.24225" lon="5.65602">
        <ele>202.8</ele>
        <time>2011-03-18T15:10:49Z</time>
      </trkpt>
      <trkpt lat="45.24211" lon="5.65613">
        <ele>203.2</ele>
        <time>2011-03-18T15:10:54Z</time>
      </trkpt>
      <trkpt lat="45.24199" lon="5.6562">
        <ele>202.8</ele>
        <time>2011-03-18T15:10:59Z</time>
      </trkpt>
      <trkpt lat="45.24186" lon="5.65629">
        <ele>202.6</ele>
        <time>2011-03-18T15:11:04Z</time>
      </trkpt>
      <trkpt lat="45.24173" lon="5.65637">
        <ele>202.8</ele>
        <time>2011-03-18T15:11:09Z</time>
      </trkpt>
      <trkpt lat="45.24159" lon="5.65646">
        <ele>202.2</ele>
        <time>2011-03-18T15:11:14Z</time>
      </trkpt>
      <trkpt lat="45.24145" lon="5.65657">
        <ele>202.4</ele>
        <time>2011-03-18T15:11:19Z</time>
      </trkpt>
      <trkpt lat="45.24131" lon="5.65668">
        <ele>203.1</ele>
        <time>2011-03-18T15:11:24Z</time>
      </trkpt>
      <trkpt lat="45.24118" lon="5.65676">
        <ele>202.3</ele>
        <time>2011-03-18T15:11:29Z</time>
      </trkpt>
      <trkpt lat="45.24104" lon="5.65685">
        <ele>202.2</ele>
        <time>2011-03-18T15:11:34Z</time>
      </trkpt>
      <trkpt lat="45.24089" lon="5.65695">
        <ele>202.5</ele>
        <time>2011-03-18T15:11:39Z</time>
      </trkpt>
      <trkpt lat="45.24078" lon="5.65703">
        <ele>202</ele>
        <time>2011-03-18T15:11:44Z</time>
      </trkpt>
      <trkpt lat="45.24063" lon="5.65712">
        <ele>201.7</ele>
        <time>2011-03-18T15:11:49Z</time>
      </trkpt>
      <trkpt lat="45.24051" lon="5.65719">
        <ele>201.8</ele>
        <time>2011-03-18T15:11:54Z</time>
      </trkpt>
      <trkpt lat="45.24036" lon="5.6573">
        <ele>201.2</ele>
        <time>2011-03-18T15:11:59Z</time>
      </trkpt>
      <trkpt lat="45.24022" lon="5.65743">
        <ele>202</ele>
        <time>2011-03-18T15:12:04Z</time>
      </trkpt>
      <trkpt lat="45.24011" lon="5.65754">
        <ele>202.4</ele>
        <time>2011-03-18T15:12:09Z</time>
      </trkpt>
      <trkpt lat="45.23996" lon="5.65765">
        <ele>202.2</ele>
        <time>2011-03-18T15:12:14Z</time>
      </trkpt>
      <trkpt lat="45.2398" lon="5.65776">
        <ele>202.9</ele>
        <time>2011-03-18T15:12:19Z</time>
      </trkpt>
      <trkpt lat="45.23969" lon="5.65784">
        <ele>202.8</ele>
        <time>2011-03-18T15:12:24Z</time>
      </trkpt>
      <trkpt lat="45.23954" lon="5.65798">
        <ele>202.3</ele>
        <time>2011-03-18T15:12:29Z</time>
      </trkpt>
      <trkpt lat="45.23942" lon="5.65805">
        <ele>202.7</ele>
        <time>2011-03-18T15:12:34Z</time>
      </trkpt>
      <trkpt lat="45.2393" lon="5.65812">
        <ele>202.7</ele>
        <time>2011-03-18T15:12:39Z</time>
      </trkpt>
      <trkpt lat="45.23916" lon="5.65825">
        <ele>203.6</ele>
        <time>2011-03-18T15:12:44Z</time>
      </trkpt>
      <trkpt lat="45.23907" lon="5.65839">
        <ele>204.2</ele>
        <time>2011-03-18T15:12:49Z</time>
      </trkpt>
      <trkpt lat="45.23901" lon="5.65862">
        <ele>205</ele>
        <time>2011-03-18T15:12:54Z</time>
      </trkpt>
      <trkpt lat="45.23901" lon="5.65879">
        <ele>204.7</ele>
        <time>2011-03-18T15:12:59Z</time>
      </trkpt>
      <trkpt lat="45.23907" lon="5.65897">
        <ele>204.4</ele>
        <time>2011-03-18T15:13:04Z</time>
      </trkpt>
      <trkpt lat="45.23912" lon="5.6592">
        <ele>204.2</ele>
        <time>2011-03-18T15:13:09Z</time>
      </trkpt>
      <trkpt lat="45.23915" lon="5.65935">
        <ele>204.1</ele>
        <time>2011-03-18T15:13:14Z</time>
      </trkpt>
      <trkpt lat="45.2391" lon="5.65956">
        <ele>203.9</ele>
        <time>2011-03-18T15:13:19Z</time>
      </trkpt>
      <trkpt lat="45.23901" lon="5.65961">
        <ele>204</ele>
        <time>2011-03-18T15:13:24Z</time>
      </trkpt>
      <trkpt lat="45.23886" lon="5.65969">
        <ele>204.2</ele>
        <time>2011-03-18T15:13:29Z</time>
      </trkpt>
      <trkpt lat="45.2387" lon="5.65979">
        <ele>204.2</ele>
        <time>2011-03-18T15:13:34Z</time>
      </trkpt>
      <trkpt lat="45.23853" lon="5.65987">
        <ele>204.1</ele>
        <time>2011-03-18T15:13:39Z</time>
      </trkpt>
      <trkpt lat="45.23837" lon="5.65983">
        <ele>204.6</ele>
        <time>2011-03-18T15:13:44Z</time>
      </trkpt>
      <trkpt lat="45.23826" lon="5.65981">
        <ele>204.7</ele>
        <time>2011-03-18T15:13:49Z</time>
      </trkpt>
      <trkpt lat="45.23813" lon="5.65977">
        <ele>204.8</ele>
        <time>2011-03-18T15:13:54Z</time>
      </trkpt>
      <trkpt lat="45.23801" lon="5.65971">
        <ele>205</ele>
        <time>2011-03-18T15:13:59Z</time>
      </trkpt>
      <trkpt lat="45.23789" lon="5.65967">
        <ele>205</ele>
        <time>2011-03-18T15:14:04Z</time>
      </trkpt>
      <trkpt lat="45.23768" lon="5.65965">
        <ele>205.1</ele>
        <time>2011-03-18T15:14:09Z</time>
      </trkpt>
      <trkpt lat="45.23756" lon="5.65962">
        <ele>205.3</ele>
        <time>2011-03-18T15:14:14Z</time>
      </trkpt>
      <trkpt lat="45.23743" lon="5.65958">
        <ele>205.5</ele>
        <time>2011-03-18T15:14:19Z</time>
      </trkpt>
      <trkpt lat="45.23729" lon="5.65959">
        <ele>205.5</ele>
        <time>2011-03-18T15:14:24Z</time>
      </trkpt>
      <trkpt lat="45.23718" lon="5.65965">
        <ele>206.1</ele>
        <time>2011-03-18T15:14:29Z</time>
      </trkpt>
      <trkpt lat="45.23703" lon="5.65975">
        <ele>206.3</ele>
        <time>2011-03-18T15:14:34Z</time>
      </trkpt>
      <trkpt lat="45.23692" lon="5.6598">
        <ele>206.4</ele>
        <time>2011-03-18T15:14:39Z</time>
      </trkpt>
      <trkpt lat="45.23677" lon="5.65974">
        <ele>206.7</ele>
        <time>2011-03-18T15:14:44Z</time>
      </trkpt>
      <trkpt lat="45.2367" lon="5.65956">
        <ele>206.7</ele>
        <time>2011-03-18T15:14:49Z</time>
      </trkpt>
      <trkpt lat="45.23662" lon="5.65939">
        <ele>206.6</ele>
        <time>2011-03-18T15:14:54Z</time>
      </trkpt>
      <trkpt lat="45.23657" lon="5.65918">
        <ele>205.1</ele>
        <time>2011-03-18T15:14:59Z</time>
      </trkpt>
      <trkpt lat="45.2365" lon="5.65898">
        <ele>205</ele>
        <time>2011-03-18T15:15:04Z</time>
      </trkpt>
      <trkpt lat="45.23642" lon="5.65879">
        <ele>204.7</ele>
        <time>2011-03-18T15:15:09Z</time>
      </trkpt>
      <trkpt lat="45.23635" lon="5.6586">
        <ele>205</ele>
        <time>2011-03-18T15:15:14Z</time>
      </trkpt>
      <trkpt lat="45.23628" lon="5.65841">
        <ele>205</ele>
        <time>2011-03-18T15:15:19Z</time>
      </trkpt>
      <trkpt lat="45.23616" lon="5.65821">
        <ele>204.7</ele>
        <time>2011-03-18T15:15:24Z</time>
      </trkpt>
      <trkpt lat="45.2361" lon="5.65805">
        <ele>205</ele>
        <time>2011-03-18T15:15:29Z</time>
      </trkpt>
      <trkpt lat="45.23603" lon="5.65785">
        <ele>205</ele>
        <time>2011-03-18T15:15:34Z</time>
      </trkpt>
      <trkpt lat="45.23596" lon="5.65765">
        <ele>204.4</ele>
        <time>2011-03-18T15:15:39Z</time>
      </trkpt>
      <trkpt lat="45.23589" lon="5.65745">
        <ele>204.3</ele>
        <time>2011-03-18T15:15:44Z</time>
      </trkpt>
      <trkpt lat="45.23582" lon="5.65724">
        <ele>206</ele>
        <time>2011-03-18T15:15:49Z</time>
      </trkpt>
      <trkpt lat="45.23576" lon="5.65704">
        <ele>207.2</ele>
        <time>2011-03-18T15:15:54Z</time>
      </trkpt>
      <trkpt lat="45.23571" lon="5.6568">
        <ele>207</ele>
        <time>2011-03-18T15:15:59Z</time>
      </trkpt>
      <trkpt lat="45.23567" lon="5.65663">
        <ele>206.3</ele>
        <time>2011-03-18T15:16:04Z</time>
      </trkpt>
      <trkpt lat="45.23559" lon="5.65645">
        <ele>205.1</ele>
        <time>2011-03-18T15:16:09Z</time>
      </trkpt>
      <trkpt lat="45.23551" lon="5.65627">
        <ele>203.3</ele>
        <time>2011-03-18T15:16:14Z</time>
      </trkpt>
      <trkpt lat="45.23544" lon="5.65607">
        <ele>202.7</ele>
        <time>2011-03-18T15:16:19Z</time>
      </trkpt>
      <trkpt lat="45.23538" lon="5.65584">
        <ele>201.3</ele>
        <time>2011-03-18T15:16:24Z</time>
      </trkpt>
      <trkpt lat="45.2354" lon="5.65568">
        <ele>202.2</ele>
        <time>2011-03-18T15:16:29Z</time>
      </trkpt>
      <trkpt lat="45.23553" lon="5.6556">
        <ele>202.6</ele>
        <time>2011-03-18T15:16:34Z</time>
      </trkpt>
      <trkpt lat="45.23569" lon="5.65553">
        <ele>202.4</ele>
        <time>2011-03-18T15:16:39Z</time>
      </trkpt>
      <trkpt lat="45.23583" lon="5.65546">
        <ele>201.7</ele>
        <time>2011-03-18T15:16:44Z</time>
      </trkpt>
      <trkpt lat="45.23601" lon="5.6554">
        <ele>201.2</ele>
        <time>2011-03-18T15:16:49Z</time>
      </trkpt>
      <trkpt lat="45.23613" lon="5.65538">
        <ele>201.2</ele>
        <time>2011-03-18T15:16:54Z</time>
      </trkpt>
      <trkpt lat="45.23628" lon="5.65536">
        <ele>201.2</ele>
        <time>2011-03-18T15:16:59Z</time>
      </trkpt>
      <trkpt lat="45.23644" lon="5.65536">
        <ele>201.3</ele>
        <time>2011-03-18T15:17:04Z</time>
      </trkpt>
      <trkpt lat="45.23658" lon="5.65533">
        <ele>201.9</ele>
        <time>2011-03-18T15:17:09Z</time>
      </trkpt>
      <trkpt lat="45.23677" lon="5.65532">
        <ele>202</ele>
        <time>2011-03-18T15:17:14Z</time>
      </trkpt>
      <trkpt lat="45.23689" lon="5.65532">
        <ele>201.9</ele>
        <time>2011-03-18T15:17:19Z</time>
      </trkpt>
      <trkpt lat="45.23704" lon="5.65533">
        <ele>201.7</ele>
        <time>2011-03-18T15:17:24Z</time>
      </trkpt>
      <trkpt lat="45.23719" lon="5.65534">
        <ele>201.2</ele>
        <time>2011-03-18T15:17:29Z</time>
      </trkpt>
      <trkpt lat="45.23734" lon="5.65532">
        <ele>201.5</ele>
        <time>2011-03-18T15:17:34Z</time>
      </trkpt>
      <trkpt lat="45.23752" lon="5.65525">
        <ele>201.9</ele>
        <time>2011-03-18T15:17:39Z</time>
      </trkpt>
      <trkpt lat="45.23763" lon="5.6552">
        <ele>201.5</ele>
        <time>2011-03-18T15:17:44Z</time>
      </trkpt>
      <trkpt lat="45.23777" lon="5.65512">
        <ele>201.6</ele>
        <time>2011-03-18T15:17:49Z</time>
      </trkpt>
      <trkpt lat="45.2379" lon="5.65501">
        <ele>202</ele>
        <time>2011-03-18T15:17:54Z</time>
      </trkpt>
      <trkpt lat="45.23805" lon="5.65492">
        <ele>201.4</ele>
        <time>2011-03-18T15:17:59Z</time>
      </trkpt>
      <trkpt lat="45.23819" lon="5.65481">
        <ele>202.1</ele>
        <time>2011-03-18T15:18:04Z</time>
      </trkpt>
      <trkpt lat="45.2383" lon="5.65471">
        <ele>203.4</ele>
        <time>2011-03-18T15:18:09Z</time>
      </trkpt>
      <trkpt lat="45.23842" lon="5.65451">
        <ele>200.4</ele>
        <time>2011-03-18T15:18:14Z</time>
      </trkpt>
      <trkpt lat="45.23857" lon="5.65441">
        <ele>201.7</ele>
        <time>2011-03-18T15:18:19Z</time>
      </trkpt>
      <trkpt lat="45.23869" lon="5.6543">
        <ele>200.9</ele>
        <time>2011-03-18T15:18:24Z</time>
      </trkpt>
      <trkpt lat="45.23883" lon="5.65419">
        <ele>200.7</ele>
        <time>2011-03-18T15:18:29Z</time>
      </trkpt>
      <trkpt lat="45.23894" lon="5.65413">
        <ele>201.2</ele>
        <time>2011-03-18T15:18:34Z</time>
      </trkpt>
      <trkpt lat="45.23908" lon="5.65403">
        <ele>201.3</ele>
        <time>2011-03-18T15:18:39Z</time>
      </trkpt>
      <trkpt lat="45.23922" lon="5.65393">
        <ele>201</ele>
        <time>2011-03-18T15:18:44Z</time>
      </trkpt>
      <trkpt lat="45.23935" lon="5.65385">
        <ele>201.4</ele>
        <time>2011-03-18T15:18:49Z</time>
      </trkpt>
      <trkpt lat="45.23948" lon="5.65377">
        <ele>201.3</ele>
        <time>2011-03-18T15:18:54Z</time>
      </trkpt>
      <trkpt lat="45.23962" lon="5.65369">
        <ele>201.8</ele>
        <time>2011-03-18T15:18:59Z</time>
      </trkpt>
      <trkpt lat="45.23975" lon="5.65358">
        <ele>202.6</ele>
        <time>2011-03-18T15:19:04Z</time>
      </trkpt>
      <trkpt lat="45.23988" lon="5.65348">
        <ele>202</ele>
        <time>2011-03-18T15:19:09Z</time>
      </trkpt>
      <trkpt lat="45.24002" lon="5.65337">
        <ele>202.3</ele>
        <time>2011-03-18T15:19:14Z</time>
      </trkpt>
      <trkpt lat="45.24018" lon="5.65327">
        <ele>202.1</ele>
        <time>2011-03-18T15:19:19Z</time>
      </trkpt>
      <trkpt lat="45.24024" lon="5.65312">
        <ele>201.3</ele>
        <time>2011-03-18T15:19:24Z</time>
      </trkpt>
      <trkpt lat="45.2404" lon="5.65303">
        <ele>201.6</ele>
        <time>2011-03-18T15:19:29Z</time>
      </trkpt>
      <trkpt lat="45.24055" lon="5.65295">
        <ele>201.5</ele>
        <time>2011-03-18T15:19:34Z</time>
      </trkpt>
      <trkpt lat="45.2407" lon="5.65288">
        <ele>201.4</ele>
        <time>2011-03-18T15:19:39Z</time>
      </trkpt>
      <trkpt lat="45.24085" lon="5.65283">
        <ele>202.6</ele>
        <time>2011-03-18T15:19:44Z</time>
      </trkpt>
      <trkpt lat="45.24098" lon="5.65275">
        <ele>202.5</ele>
        <time>2011-03-18T15:19:49Z</time>
      </trkpt>
      <trkpt lat="45.24116" lon="5.65267">
        <ele>201.1</ele>
        <time>2011-03-18T15:19:54Z</time>
      </trkpt>
      <trkpt lat="45.24127" lon="5.65263">
        <ele>200.6</ele>
        <time>2011-03-18T15:19:59Z</time>
      </trkpt>
      <trkpt lat="45.24141" lon="5.65257">
        <ele>200.5</ele>
        <time>2011-03-18T15:20:04Z</time>
      </trkpt>
      <trkpt lat="45.24158" lon="5.65249">
        <ele>201.3</ele>
        <time>2011-03-18T15:20:09Z</time>
      </trkpt>
      <trkpt lat="45.24168" lon="5.65239">
        <ele>200.4</ele>
        <time>2011-03-18T15:20:14Z</time>
      </trkpt>
      <trkpt lat="45.24187" lon="5.65235">
        <ele>199.8</ele>
        <time>2011-03-18T15:20:19Z</time>
      </trkpt>
      <trkpt lat="45.24199" lon="5.6523">
        <ele>199.6</ele>
        <time>2011-03-18T15:20:24Z</time>
      </trkpt>
      <trkpt lat="45.24212" lon="5.65221">
        <ele>201</ele>
        <time>2011-03-18T15:20:29Z</time>
      </trkpt>
      <trkpt lat="45.24225" lon="5.65213">
        <ele>201.2</ele>
        <time>2011-03-18T15:20:34Z</time>
      </trkpt>
      <trkpt lat="45.24239" lon="5.65202">
        <ele>200.2</ele>
        <time>2011-03-18T15:20:39Z</time>
      </trkpt>
      <trkpt lat="45.24255" lon="5.6519">
        <ele>200.7</ele>
        <time>2011-03-18T15:20:44Z</time>
      </trkpt>
      <trkpt lat="45.24264" lon="5.6518">
        <ele>199.9</ele>
        <time>2011-03-18T15:20:49Z</time>
      </trkpt>
      <trkpt lat="45.24277" lon="5.65172">
        <ele>199.6</ele>
        <time>2011-03-18T15:20:54Z</time>
      </trkpt>
      <trkpt lat="45.2429" lon="5.65162">
        <ele>199.9</ele>
        <time>2011-03-18T15:20:59Z</time>
      </trkpt>
      <trkpt lat="45.24305" lon="5.65155">
        <ele>200.3</ele>
        <time>2011-03-18T15:21:04Z</time>
      </trkpt>
      <trkpt lat="45.24321" lon="5.65145">
        <ele>200.1</ele>
        <time>2011-03-18T15:21:09Z</time>
      </trkpt>
      <trkpt lat="45.24332" lon="5.65136">
        <ele>201.3</ele>
        <time>2011-03-18T15:21:14Z</time>
      </trkpt>
      <trkpt lat="45.24346" lon="5.65126">
        <ele>199.8</ele>
        <time>2011-03-18T15:21:19Z</time>
      </trkpt>
      <trkpt lat="45.2436" lon="5.65116">
        <ele>199.9</ele>
        <time>2011-03-18T15:21:24Z</time>
      </trkpt>
      <trkpt lat="45.24372" lon="5.65107">
        <ele>200.2</ele>
        <time>2011-03-18T15:21:29Z</time>
      </trkpt>
      <trkpt lat="45.24389" lon="5.65095">
        <ele>199.7</ele>
        <time>2011-03-18T15:21:34Z</time>
      </trkpt>
      <trkpt lat="45.24399" lon="5.65089">
        <ele>199.5</ele>
        <time>2011-03-18T15:21:39Z</time>
      </trkpt>
      <trkpt lat="45.24413" lon="5.6508">
        <ele>201.1</ele>
        <time>2011-03-18T15:21:44Z</time>
      </trkpt>
      <trkpt lat="45.24427" lon="5.65072">
        <ele>200</ele>
        <time>2011-03-18T15:21:49Z</time>
      </trkpt>
      <trkpt lat="45.24442" lon="5.65065">
        <ele>199.9</ele>
        <time>2011-03-18T15:21:54Z</time>
      </trkpt>
      <trkpt lat="45.24458" lon="5.65054">
        <ele>200.4</ele>
        <time>2011-03-18T15:21:59Z</time>
      </trkpt>
      <trkpt lat="45.24469" lon="5.65048">
        <ele>199.8</ele>
        <time>2011-03-18T15:22:04Z</time>
      </trkpt>
      <trkpt lat="45.24482" lon="5.65038">
        <ele>199.4</ele>
        <time>2011-03-18T15:22:09Z</time>
      </trkpt>
      <trkpt lat="45.24495" lon="5.65028">
        <ele>201.4</ele>
        <time>2011-03-18T15:22:14Z</time>
      </trkpt>
      <trkpt lat="45.24508" lon="5.65016">
        <ele>199.9</ele>
        <time>2011-03-18T15:22:19Z</time>
      </trkpt>
      <trkpt lat="45.24526" lon="5.65005">
        <ele>201</ele>
        <time>2011-03-18T15:22:24Z</time>
      </trkpt>
      <trkpt lat="45.24538" lon="5.64998">
        <ele>200.4</ele>
        <time>2011-03-18T15:22:29Z</time>
      </trkpt>
      <trkpt lat="45.24552" lon="5.64987">
        <ele>199.4</ele>
        <time>2011-03-18T15:22:34Z</time>
      </trkpt>
      <trkpt lat="45.24564" lon="5.64979">
        <ele>200.1</ele>
        <time>2011-03-18T15:22:39Z</time>
      </trkpt>
      <trkpt lat="45.24576" lon="5.6497">
        <ele>200.8</ele>
        <time>2011-03-18T15:22:44Z</time>
      </trkpt>
      <trkpt lat="45.24593" lon="5.64958">
        <ele>199.5</ele>
        <time>2011-03-18T15:22:49Z</time>
      </trkpt>
      <trkpt lat="45.24605" lon="5.64951">
        <ele>200.2</ele>
        <time>2011-03-18T15:22:54Z</time>
      </trkpt>
      <trkpt lat="45.2462" lon="5.64942">
        <ele>200.3</ele>
        <time>2011-03-18T15:22:59Z</time>
      </trkpt>
      <trkpt lat="45.24634" lon="5.64933">
        <ele>199</ele>
        <time>2011-03-18T15:23:04Z</time>
      </trkpt>
      <trkpt lat="45.24646" lon="5.64922">
        <ele>199.5</ele>
        <time>2011-03-18T15:23:09Z</time>
      </trkpt>
      <trkpt lat="45.2466" lon="5.64911">
        <ele>199.2</ele>
        <time>2011-03-18T15:23:14Z</time>
      </trkpt>
      <trkpt lat="45.2467" lon="5.64893">
        <ele>201</ele>
        <time>2011-03-18T15:23:19Z</time>
      </trkpt>
      <trkpt lat="45.24682" lon="5.64881">
        <ele>199.8</ele>
        <time>2011-03-18T15:23:24Z</time>
      </trkpt>
      <trkpt lat="45.24696" lon="5.64869">
        <ele>200.7</ele>
        <time>2011-03-18T15:23:29Z</time>
      </trkpt>
      <trkpt lat="45.24709" lon="5.64856">
        <ele>199.8</ele>
        <time>2011-03-18T15:23:34Z</time>
      </trkpt>
      <trkpt lat="45.24722" lon="5.64844">
        <ele>199.8</ele>
        <time>2011-03-18T15:23:39Z</time>
      </trkpt>
      <trkpt lat="45.24736" lon="5.64834">
        <ele>200</ele>
        <time>2011-03-18T15:23:44Z</time>
      </trkpt>
      <trkpt lat="45.2475" lon="5.64816">
        <ele>200.8</ele>
        <time>2011-03-18T15:23:49Z</time>
      </trkpt>
      <trkpt lat="45.24759" lon="5.64808">
        <ele>200.7</ele>
        <time>2011-03-18T15:23:54Z</time>
      </trkpt>
      <trkpt lat="45.24771" lon="5.64795">
        <ele>200.2</ele>
        <time>2011-03-18T15:23:59Z</time>
      </trkpt>
      <trkpt lat="45.24786" lon="5.6478">
        <ele>200.7</ele>
        <time>2011-03-18T15:24:04Z</time>
      </trkpt>
      <trkpt lat="45.24796" lon="5.64771">
        <ele>199.8</ele>
        <time>2011-03-18T15:24:09Z</time>
      </trkpt>
      <trkpt lat="45.24808" lon="5.64753">
        <ele>201.2</ele>
        <time>2011-03-18T15:24:14Z</time>
      </trkpt>
      <trkpt lat="45.24817" lon="5.64742">
        <ele>199.6</ele>
        <time>2011-03-18T15:24:19Z</time>
      </trkpt>
      <trkpt lat="45.24828" lon="5.64727">
        <ele>199.8</ele>
        <time>2011-03-18T15:24:24Z</time>
      </trkpt>
      <trkpt lat="45.24838" lon="5.64713">
        <ele>199.3</ele>
        <time>2011-03-18T15:24:29Z</time>
      </trkpt>
      <trkpt lat="45.24851" lon="5.647">
        <ele>198.8</ele>
        <time>2011-03-18T15:24:34Z</time>
      </trkpt>
      <trkpt lat="45.24862" lon="5.64687">
        <ele>199.3</ele>
        <time>2011-03-18T15:24:39Z</time>
      </trkpt>
      <trkpt lat="45.24873" lon="5.64673">
        <ele>198.1</ele>
        <time>2011-03-18T15:24:44Z</time>
      </trkpt>
      <trkpt lat="45.24885" lon="5.64657">
        <ele>198.9</ele>
        <time>2011-03-18T15:24:49Z</time>
      </trkpt>
      <trkpt lat="45.24898" lon="5.64639">
        <ele>200</ele>
        <time>2011-03-18T15:24:54Z</time>
      </trkpt>
      <trkpt lat="45.24906" lon="5.6463">
        <ele>199.3</ele>
        <time>2011-03-18T15:24:59Z</time>
      </trkpt>
      <trkpt lat="45.24919" lon="5.64614">
        <ele>200.4</ele>
        <time>2011-03-18T15:25:04Z</time>
      </trkpt>
      <trkpt lat="45.24928" lon="5.64602">
        <ele>199</ele>
        <time>2011-03-18T15:25:09Z</time>
      </trkpt>
      <trkpt lat="45.24939" lon="5.64587">
        <ele>199.2</ele>
        <time>2011-03-18T15:25:14Z</time>
      </trkpt>
      <trkpt lat="45.24949" lon="5.64574">
        <ele>198.8</ele>
        <time>2011-03-18T15:25:19Z</time>
      </trkpt>
      <trkpt lat="45.2496" lon="5.64559">
        <ele>197.4</ele>
        <time>2011-03-18T15:25:24Z</time>
      </trkpt>
      <trkpt lat="45.24972" lon="5.64538">
        <ele>199.5</ele>
        <time>2011-03-18T15:25:29Z</time>
      </trkpt>
      <trkpt lat="45.2498" lon="5.64527">
        <ele>199.8</ele>
        <time>2011-03-18T15:25:34Z</time>
      </trkpt>
      <trkpt lat="45.2499" lon="5.64514">
        <ele>198.8</ele>
        <time>2011-03-18T15:25:39Z</time>
      </trkpt>
      <trkpt lat="45.25001" lon="5.64497">
        <ele>200.4</ele>
        <time>2011-03-18T15:25:44Z</time>
      </trkpt>
      <trkpt lat="45.2501" lon="5.6448">
        <ele>198.5</ele>
        <time>2011-03-18T15:25:49Z</time>
      </trkpt>
      <trkpt lat="45.25022" lon="5.64458">
        <ele>198.5</ele>
        <time>2011-03-18T15:25:54Z</time>
      </trkpt>
      <trkpt lat="45.2503" lon="5.64446">
        <ele>198.2</ele>
        <time>2011-03-18T15:25:59Z</time>
      </trkpt>
      <trkpt lat="45.25039" lon="5.64435">
        <ele>198.3</ele>
        <time>2011-03-18T15:26:04Z</time>
      </trkpt>
      <trkpt lat="45.25052" lon="5.64421">
        <ele>199.5</ele>
        <time>2011-03-18T15:26:09Z</time>
      </trkpt>
      <trkpt lat="45.25063" lon="5.64409">
        <ele>199.2</ele>
        <time>2011-03-18T15:26:14Z</time>
      </trkpt>
      <trkpt lat="45.25078" lon="5.64387">
        <ele>199.1</ele>
        <time>2011-03-18T15:26:19Z</time>
      </trkpt>
      <trkpt lat="45.25086" lon="5.64375">
        <ele>198.2</ele>
        <time>2011-03-18T15:26:24Z</time>
      </trkpt>
      <trkpt lat="45.25098" lon="5.64362">
        <ele>198.1</ele>
        <time>2011-03-18T15:26:29Z</time>
      </trkpt>
      <trkpt lat="45.2511" lon="5.64347">
        <ele>198.9</ele>
        <time>2011-03-18T15:26:34Z</time>
      </trkpt>
      <trkpt lat="45.25122" lon="5.64332">
        <ele>198.8</ele>
        <time>2011-03-18T15:26:39Z</time>
      </trkpt>
      <trkpt lat="45.25135" lon="5.64319">
        <ele>199.6</ele>
        <time>2011-03-18T15:26:44Z</time>
      </trkpt>
      <trkpt lat="45.25147" lon="5.64306">
        <ele>199.7</ele>
        <time>2011-03-18T15:26:49Z</time>
      </trkpt>
      <trkpt lat="45.2516" lon="5.64293">
        <ele>199.1</ele>
        <time>2011-03-18T15:26:54Z</time>
      </trkpt>
      <trkpt lat="45.25169" lon="5.64274">
        <ele>199.4</ele>
        <time>2011-03-18T15:26:59Z</time>
      </trkpt>
      <trkpt lat="45.25182" lon="5.6426">
        <ele>198.9</ele>
        <time>2011-03-18T15:27:04Z</time>
      </trkpt>
      <trkpt lat="45.25192" lon="5.64246">
        <ele>200.3</ele>
        <time>2011-03-18T15:27:09Z</time>
      </trkpt>
      <trkpt lat="45.25203" lon="5.6423">
        <ele>198</ele>
        <time>2011-03-18T15:27:14Z</time>
      </trkpt>
      <trkpt lat="45.25213" lon="5.64216">
        <ele>197.6</ele>
        <time>2011-03-18T15:27:19Z</time>
      </trkpt>
      <trkpt lat="45.25225" lon="5.64203">
        <ele>198.7</ele>
        <time>2011-03-18T15:27:24Z</time>
      </trkpt>
      <trkpt lat="45.25235" lon="5.64188">
        <ele>197.7</ele>
        <time>2011-03-18T15:27:29Z</time>
      </trkpt>
      <trkpt lat="45.25246" lon="5.64174">
        <ele>198.4</ele>
        <time>2011-03-18T15:27:34Z</time>
      </trkpt>
      <trkpt lat="45.25258" lon="5.64157">
        <ele>198</ele>
        <time>2011-03-18T15:27:39Z</time>
      </trkpt>
      <trkpt lat="45.25271" lon="5.64139">
        <ele>198.5</ele>
        <time>2011-03-18T15:27:44Z</time>
      </trkpt>
      <trkpt lat="45.2528" lon="5.6413">
        <ele>198.4</ele>
        <time>2011-03-18T15:27:49Z</time>
      </trkpt>
      <trkpt lat="45.2529" lon="5.64116">
        <ele>197.1</ele>
        <time>2011-03-18T15:27:54Z</time>
      </trkpt>
      <trkpt lat="45.25299" lon="5.64096">
        <ele>197.9</ele>
        <time>2011-03-18T15:27:59Z</time>
      </trkpt>
      <trkpt lat="45.25309" lon="5.6408">
        <ele>198.9</ele>
        <time>2011-03-18T15:28:04Z</time>
      </trkpt>
      <trkpt lat="45.25319" lon="5.64059">
        <ele>196.6</ele>
        <time>2011-03-18T15:28:09Z</time>
      </trkpt>
      <trkpt lat="45.25325" lon="5.64042">
        <ele>197.7</ele>
        <time>2011-03-18T15:28:14Z</time>
      </trkpt>
      <trkpt lat="45.25332" lon="5.64021">
        <ele>199.1</ele>
        <time>2011-03-18T15:28:19Z</time>
      </trkpt>
      <trkpt lat="45.25342" lon="5.63997">
        <ele>196.7</ele>
        <time>2011-03-18T15:28:24Z</time>
      </trkpt>
      <trkpt lat="45.25349" lon="5.63985">
        <ele>197.4</ele>
        <time>2011-03-18T15:28:29Z</time>
      </trkpt>
      <trkpt lat="45.25358" lon="5.63966">
        <ele>199.2</ele>
        <time>2011-03-18T15:28:34Z</time>
      </trkpt>
      <trkpt lat="45.25364" lon="5.63953">
        <ele>198.2</ele>
        <time>2011-03-18T15:28:39Z</time>
      </trkpt>
      <trkpt lat="45.25373" lon="5.63936">
        <ele>196.9</ele>
        <time>2011-03-18T15:28:44Z</time>
      </trkpt>
      <trkpt lat="45.2538" lon="5.63919">
        <ele>197.9</ele>
        <time>2011-03-18T15:28:49Z</time>
      </trkpt>
      <trkpt lat="45.2539" lon="5.63905">
        <ele>198.8</ele>
        <time>2011-03-18T15:28:54Z</time>
      </trkpt>
      <trkpt lat="45.25401" lon="5.63885">
        <ele>197.3</ele>
        <time>2011-03-18T15:28:59Z</time>
      </trkpt>
      <trkpt lat="45.25407" lon="5.63871">
        <ele>197.2</ele>
        <time>2011-03-18T15:29:04Z</time>
      </trkpt>
      <trkpt lat="45.25415" lon="5.63852">
        <ele>198.5</ele>
        <time>2011-03-18T15:29:09Z</time>
      </trkpt>
      <trkpt lat="45.25421" lon="5.63832">
        <ele>198.9</ele>
        <time>2011-03-18T15:29:14Z</time>
      </trkpt>
      <trkpt lat="45.25429" lon="5.63816">
        <ele>197.1</ele>
        <time>2011-03-18T15:29:19Z</time>
      </trkpt>
      <trkpt lat="45.25441" lon="5.63796">
        <ele>197.8</ele>
        <time>2011-03-18T15:29:24Z</time>
      </trkpt>
      <trkpt lat="45.25447" lon="5.63781">
        <ele>199.1</ele>
        <time>2011-03-18T15:29:29Z</time>
      </trkpt>
      <trkpt lat="45.25456" lon="5.63762">
        <ele>197</ele>
        <time>2011-03-18T15:29:34Z</time>
      </trkpt>
      <trkpt lat="45.25465" lon="5.63743">
        <ele>196.9</ele>
        <time>2011-03-18T15:29:39Z</time>
      </trkpt>
      <trkpt lat="45.25472" lon="5.63719">
        <ele>199.8</ele>
        <time>2011-03-18T15:29:44Z</time>
      </trkpt>
      <trkpt lat="45.25481" lon="5.63695">
        <ele>197.4</ele>
        <time>2011-03-18T15:29:49Z</time>
      </trkpt>
      <trkpt lat="45.25487" lon="5.63682">
        <ele>197.7</ele>
        <time>2011-03-18T15:29:54Z</time>
      </trkpt>
      <trkpt lat="45.25496" lon="5.63665">
        <ele>199.5</ele>
        <time>2011-03-18T15:29:59Z</time>
      </trkpt>
      <trkpt lat="45.25505" lon="5.63646">
        <ele>199.2</ele>
        <time>2011-03-18T15:30:04Z</time>
      </trkpt>
      <trkpt lat="45.25516" lon="5.63627">
        <ele>198.7</ele>
        <time>2011-03-18T15:30:09Z</time>
      </trkpt>
      <trkpt lat="45.25528" lon="5.63606">
        <ele>198.9</ele>
        <time>2011-03-18T15:30:14Z</time>
      </trkpt>
      <trkpt lat="45.25537" lon="5.63595">
        <ele>197.4</ele>
        <time>2011-03-18T15:30:19Z</time>
      </trkpt>
      <trkpt lat="45.25548" lon="5.63582">
        <ele>198.6</ele>
        <time>2011-03-18T15:30:24Z</time>
      </trkpt>
      <trkpt lat="45.25561" lon="5.63567">
        <ele>197.5</ele>
        <time>2011-03-18T15:30:29Z</time>
      </trkpt>
      <trkpt lat="45.25572" lon="5.63552">
        <ele>197.6</ele>
        <time>2011-03-18T15:30:34Z</time>
      </trkpt>
      <trkpt lat="45.25581" lon="5.63538">
        <ele>197.6</ele>
        <time>2011-03-18T15:30:39Z</time>
      </trkpt>
      <trkpt lat="45.25594" lon="5.63528">
        <ele>197.8</ele>
        <time>2011-03-18T15:30:44Z</time>
      </trkpt>
      <trkpt lat="45.25606" lon="5.63515">
        <ele>197.8</ele>
        <time>2011-03-18T15:30:49Z</time>
      </trkpt>
      <trkpt lat="45.25618" lon="5.635">
        <ele>196.8</ele>
        <time>2011-03-18T15:30:54Z</time>
      </trkpt>
      <trkpt lat="45.2563" lon="5.63483">
        <ele>197.3</ele>
        <time>2011-03-18T15:30:59Z</time>
      </trkpt>
      <trkpt lat="45.25641" lon="5.63462">
        <ele>197.5</ele>
        <time>2011-03-18T15:31:04Z</time>
      </trkpt>
      <trkpt lat="45.25653" lon="5.63448">
        <ele>197.4</ele>
        <time>2011-03-18T15:31:09Z</time>
      </trkpt>
      <trkpt lat="45.25665" lon="5.63434">
        <ele>197.9</ele>
        <time>2011-03-18T15:31:14Z</time>
      </trkpt>
      <trkpt lat="45.25676" lon="5.6342">
        <ele>196.5</ele>
        <time>2011-03-18T15:31:19Z</time>
      </trkpt>
      <trkpt lat="45.25686" lon="5.63401">
        <ele>196.2</ele>
        <time>2011-03-18T15:31:24Z</time>
      </trkpt>
      <trkpt lat="45.25698" lon="5.63388">
        <ele>195.5</ele>
        <time>2011-03-18T15:31:29Z</time>
      </trkpt>
      <trkpt lat="45.25708" lon="5.63376">
        <ele>196.5</ele>
        <time>2011-03-18T15:31:34Z</time>
      </trkpt>
      <trkpt lat="45.25725" lon="5.63363">
        <ele>197</ele>
        <time>2011-03-18T15:31:39Z</time>
      </trkpt>
      <trkpt lat="45.25734" lon="5.63352">
        <ele>196.6</ele>
        <time>2011-03-18T15:31:44Z</time>
      </trkpt>
      <trkpt lat="45.25745" lon="5.63337">
        <ele>198</ele>
        <time>2011-03-18T15:31:49Z</time>
      </trkpt>
      <trkpt lat="45.25757" lon="5.63322">
        <ele>197.6</ele>
        <time>2011-03-18T15:31:54Z</time>
      </trkpt>
      <trkpt lat="45.25768" lon="5.63305">
        <ele>198.5</ele>
        <time>2011-03-18T15:31:59Z</time>
      </trkpt>
      <trkpt lat="45.25779" lon="5.63292">
        <ele>197.6</ele>
        <time>2011-03-18T15:32:04Z</time>
      </trkpt>
      <trkpt lat="45.2579" lon="5.6328">
        <ele>196.7</ele>
        <time>2011-03-18T15:32:09Z</time>
      </trkpt>
      <trkpt lat="45.25801" lon="5.63266">
        <ele>197</ele>
        <time>2011-03-18T15:32:14Z</time>
      </trkpt>
      <trkpt lat="45.25812" lon="5.63256">
        <ele>195.9</ele>
        <time>2011-03-18T15:32:19Z</time>
      </trkpt>
      <trkpt lat="45.25823" lon="5.63244">
        <ele>196.2</ele>
        <time>2011-03-18T15:32:24Z</time>
      </trkpt>
      <trkpt lat="45.25835" lon="5.63226">
        <ele>196.8</ele>
        <time>2011-03-18T15:32:29Z</time>
      </trkpt>
      <trkpt lat="45.25844" lon="5.63215">
        <ele>196.2</ele>
        <time>2011-03-18T15:32:34Z</time>
      </trkpt>
      <trkpt lat="45.25856" lon="5.632">
        <ele>197.1</ele>
        <time>2011-03-18T15:32:39Z</time>
      </trkpt>
      <trkpt lat="45.2587" lon="5.63182">
        <ele>196.3</ele>
        <time>2011-03-18T15:32:44Z</time>
      </trkpt>
      <trkpt lat="45.2588" lon="5.63175">
        <ele>196.8</ele>
        <time>2011-03-18T15:32:49Z</time>
      </trkpt>
      <trkpt lat="45.25895" lon="5.63158">
        <ele>197.1</ele>
        <time>2011-03-18T15:32:54Z</time>
      </trkpt>
      <trkpt lat="45.25904" lon="5.63146">
        <ele>196.8</ele>
        <time>2011-03-18T15:32:59Z</time>
      </trkpt>
      <trkpt lat="45.25914" lon="5.6313">
        <ele>197.7</ele>
        <time>2011-03-18T15:33:04Z</time>
      </trkpt>
      <trkpt lat="45.25926" lon="5.63115">
        <ele>196.4</ele>
        <time>2011-03-18T15:33:09Z</time>
      </trkpt>
      <trkpt lat="45.25936" lon="5.631">
        <ele>196.4</ele>
        <time>2011-03-18T15:33:14Z</time>
      </trkpt>
      <trkpt lat="45.25949" lon="5.63081">
        <ele>195.8</ele>
        <time>2011-03-18T15:33:19Z</time>
      </trkpt>
      <trkpt lat="45.25958" lon="5.63068">
        <ele>196</ele>
        <time>2011-03-18T15:33:24Z</time>
      </trkpt>
      <trkpt lat="45.25971" lon="5.63057">
        <ele>197.8</ele>
        <time>2011-03-18T15:33:29Z</time>
      </trkpt>
      <trkpt lat="45.25983" lon="5.63046">
        <ele>196</ele>
        <time>2011-03-18T15:33:34Z</time>
      </trkpt>
      <trkpt lat="45.25993" lon="5.63033">
        <ele>197.1</ele>
        <time>2011-03-18T15:33:39Z</time>
      </trkpt>
      <trkpt lat="45.26005" lon="5.63014">
        <ele>196.7</ele>
        <time>2011-03-18T15:33:44Z</time>
      </trkpt>
      <trkpt lat="45.26011" lon="5.62998">
        <ele>196.5</ele>
        <time>2011-03-18T15:33:49Z</time>
      </trkpt>
      <trkpt lat="45.26021" lon="5.62985">
        <ele>196.4</ele>
        <time>2011-03-18T15:33:54Z</time>
      </trkpt>
      <trkpt lat="45.26034" lon="5.62974">
        <ele>195.8</ele>
        <time>2011-03-18T15:33:59Z</time>
      </trkpt>
      <trkpt lat="45.26047" lon="5.62965">
        <ele>196.9</ele>
        <time>2011-03-18T15:34:04Z</time>
      </trkpt>
      <trkpt lat="45.26061" lon="5.6295">
        <ele>196.6</ele>
        <time>2011-03-18T15:34:09Z</time>
      </trkpt>
      <trkpt lat="45.2607" lon="5.62938">
        <ele>196</ele>
        <time>2011-03-18T15:34:14Z</time>
      </trkpt>
      <trkpt lat="45.26082" lon="5.62924">
        <ele>196.5</ele>
        <time>2011-03-18T15:34:19Z</time>
      </trkpt>
      <trkpt lat="45.26094" lon="5.62906">
        <ele>196.2</ele>
        <time>2011-03-18T15:34:24Z</time>
      </trkpt>
      <trkpt lat="45.26106" lon="5.62893">
        <ele>197.8</ele>
        <time>2011-03-18T15:34:29Z</time>
      </trkpt>
      <trkpt lat="45.26119" lon="5.62877">
        <ele>196.2</ele>
        <time>2011-03-18T15:34:34Z</time>
      </trkpt>
      <trkpt lat="45.26128" lon="5.62866">
        <ele>196.5</ele>
        <time>2011-03-18T15:34:39Z</time>
      </trkpt>
      <trkpt lat="45.26139" lon="5.62849">
        <ele>197.3</ele>
        <time>2011-03-18T15:34:44Z</time>
      </trkpt>
      <trkpt lat="45.2615" lon="5.62834">
        <ele>195.8</ele>
        <time>2011-03-18T15:34:49Z</time>
      </trkpt>
      <trkpt lat="45.26161" lon="5.62821">
        <ele>196.3</ele>
        <time>2011-03-18T15:34:54Z</time>
      </trkpt>
      <trkpt lat="45.26172" lon="5.62805">
        <ele>196</ele>
        <time>2011-03-18T15:34:59Z</time>
      </trkpt>
      <trkpt lat="45.26181" lon="5.62794">
        <ele>196.2</ele>
        <time>2011-03-18T15:35:04Z</time>
      </trkpt>
      <trkpt lat="45.26192" lon="5.6278">
        <ele>196.9</ele>
        <time>2011-03-18T15:35:09Z</time>
      </trkpt>
      <trkpt lat="45.26204" lon="5.62765">
        <ele>196.5</ele>
        <time>2011-03-18T15:35:14Z</time>
      </trkpt>
      <trkpt lat="45.26216" lon="5.62749">
        <ele>198.3</ele>
        <time>2011-03-18T15:35:19Z</time>
      </trkpt>
      <trkpt lat="45.26228" lon="5.62735">
        <ele>196.7</ele>
        <time>2011-03-18T15:35:24Z</time>
      </trkpt>
      <trkpt lat="45.26238" lon="5.62725">
        <ele>197.1</ele>
        <time>2011-03-18T15:35:29Z</time>
      </trkpt>
      <trkpt lat="45.26252" lon="5.62707">
        <ele>196.7</ele>
        <time>2011-03-18T15:35:34Z</time>
      </trkpt>
      <trkpt lat="45.26261" lon="5.62697">
        <ele>196.2</ele>
        <time>2011-03-18T15:35:39Z</time>
      </trkpt>
      <trkpt lat="45.26273" lon="5.62683">
        <ele>196.9</ele>
        <time>2011-03-18T15:35:44Z</time>
      </trkpt>
      <trkpt lat="45.26284" lon="5.62669">
        <ele>196</ele>
        <time>2011-03-18T15:35:49Z</time>
      </trkpt>
      <trkpt lat="45.26296" lon="5.62654">
        <ele>196.6</ele>
        <time>2011-03-18T15:35:54Z</time>
      </trkpt>
      <trkpt lat="45.2631" lon="5.62639">
        <ele>197.4</ele>
        <time>2011-03-18T15:35:59Z</time>
      </trkpt>
      <trkpt lat="45.26319" lon="5.62628">
        <ele>196.2</ele>
        <time>2011-03-18T15:36:04Z</time>
      </trkpt>
      <trkpt lat="45.26329" lon="5.62614">
        <ele>197.2</ele>
        <time>2011-03-18T15:36:09Z</time>
      </trkpt>
      <trkpt lat="45.26344" lon="5.62596">
        <ele>196.3</ele>
        <time>2011-03-18T15:36:14Z</time>
      </trkpt>
      <trkpt lat="45.26352" lon="5.62583">
        <ele>197.6</ele>
        <time>2011-03-18T15:36:19Z</time>
      </trkpt>
      <trkpt lat="45.26366" lon="5.62569">
        <ele>196.6</ele>
        <time>2011-03-18T15:36:24Z</time>
      </trkpt>
      <trkpt lat="45.26376" lon="5.62558">
        <ele>196.5</ele>
        <time>2011-03-18T15:36:29Z</time>
      </trkpt>
      <trkpt lat="45.26387" lon="5.62539">
        <ele>196.1</ele>
        <time>2011-03-18T15:36:34Z</time>
      </trkpt>
      <trkpt lat="45.26398" lon="5.62529">
        <ele>195.9</ele>
        <time>2011-03-18T15:36:39Z</time>
      </trkpt>
      <trkpt lat="45.26408" lon="5.62519">
        <ele>196.5</ele>
        <time>2011-03-18T15:36:44Z</time>
      </trkpt>
      <trkpt lat="45.26421" lon="5.62509">
        <ele>196</ele>
        <time>2011-03-18T15:36:49Z</time>
      </trkpt>
      <trkpt lat="45.26432" lon="5.62501">
        <ele>196.5</ele>
        <time>2011-03-18T15:36:54Z</time>
      </trkpt>
      <trkpt lat="45.26447" lon="5.6249">
        <ele>196.7</ele>
        <time>2011-03-18T15:36:59Z</time>
      </trkpt>
      <trkpt lat="45.26461" lon="5.62477">
        <ele>196.9</ele>
        <time>2011-03-18T15:37:04Z</time>
      </trkpt>
      <trkpt lat="45.26475" lon="5.62465">
        <ele>197.4</ele>
        <time>2011-03-18T15:37:09Z</time>
      </trkpt>
      <trkpt lat="45.2649" lon="5.62449">
        <ele>196.9</ele>
        <time>2011-03-18T15:37:14Z</time>
      </trkpt>
      <trkpt lat="45.26501" lon="5.62438">
        <ele>198</ele>
        <time>2011-03-18T15:37:19Z</time>
      </trkpt>
      <trkpt lat="45.26513" lon="5.62428">
        <ele>196.8</ele>
        <time>2011-03-18T15:37:24Z</time>
      </trkpt>
      <trkpt lat="45.26525" lon="5.62414">
        <ele>198.4</ele>
        <time>2011-03-18T15:37:29Z</time>
      </trkpt>
      <trkpt lat="45.26538" lon="5.62403">
        <ele>197.5</ele>
        <time>2011-03-18T15:37:34Z</time>
      </trkpt>
      <trkpt lat="45.26552" lon="5.62391">
        <ele>197</ele>
        <time>2011-03-18T15:37:39Z</time>
      </trkpt>
      <trkpt lat="45.26563" lon="5.62384">
        <ele>196.2</ele>
        <time>2011-03-18T15:37:44Z</time>
      </trkpt>
      <trkpt lat="45.26575" lon="5.62371">
        <ele>195.7</ele>
        <time>2011-03-18T15:37:49Z</time>
      </trkpt>
      <trkpt lat="45.26589" lon="5.6236">
        <ele>196.1</ele>
        <time>2011-03-18T15:37:54Z</time>
      </trkpt>
      <trkpt lat="45.26602" lon="5.62349">
        <ele>196.2</ele>
        <time>2011-03-18T15:37:59Z</time>
      </trkpt>
      <trkpt lat="45.26615" lon="5.62337">
        <ele>196.2</ele>
        <time>2011-03-18T15:38:04Z</time>
      </trkpt>
      <trkpt lat="45.26627" lon="5.62324">
        <ele>196.2</ele>
        <time>2011-03-18T15:38:09Z</time>
      </trkpt>
      <trkpt lat="45.2664" lon="5.62313">
        <ele>196.2</ele>
        <time>2011-03-18T15:38:14Z</time>
      </trkpt>
      <trkpt lat="45.26652" lon="5.623">
        <ele>196.2</ele>
        <time>2011-03-18T15:38:19Z</time>
      </trkpt>
      <trkpt lat="45.26664" lon="5.62287">
        <ele>196.2</ele>
        <time>2011-03-18T15:38:24Z</time>
      </trkpt>
      <trkpt lat="45.26678" lon="5.62273">
        <ele>196.2</ele>
        <time>2011-03-18T15:38:29Z</time>
      </trkpt>
      <trkpt lat="45.26689" lon="5.62264">
        <ele>196.3</ele>
        <time>2011-03-18T15:38:34Z</time>
      </trkpt>
      <trkpt lat="45.26702" lon="5.62252">
        <ele>196.5</ele>
        <time>2011-03-18T15:38:39Z</time>
      </trkpt>
      <trkpt lat="45.26716" lon="5.62239">
        <ele>197.2</ele>
        <time>2011-03-18T15:38:44Z</time>
      </trkpt>
      <trkpt lat="45.2673" lon="5.62228">
        <ele>196.9</ele>
        <time>2011-03-18T15:38:49Z</time>
      </trkpt>
      <trkpt lat="45.26742" lon="5.62217">
        <ele>197</ele>
        <time>2011-03-18T15:38:54Z</time>
      </trkpt>
      <trkpt lat="45.26755" lon="5.62205">
        <ele>196.8</ele>
        <time>2011-03-18T15:38:59Z</time>
      </trkpt>
      <trkpt lat="45.26767" lon="5.62196">
        <ele>197.4</ele>
        <time>2011-03-18T15:39:04Z</time>
      </trkpt>
      <trkpt lat="45.26777" lon="5.62187">
        <ele>197.4</ele>
        <time>2011-03-18T15:39:09Z</time>
      </trkpt>
      <trkpt lat="45.26794" lon="5.6218">
        <ele>196.2</ele>
        <time>2011-03-18T15:39:14Z</time>
      </trkpt>
      <trkpt lat="45.26809" lon="5.62173">
        <ele>196.4</ele>
        <time>2011-03-18T15:39:19Z</time>
      </trkpt>
      <trkpt lat="45.26823" lon="5.62163">
        <ele>195.7</ele>
        <time>2011-03-18T15:39:24Z</time>
      </trkpt>
      <trkpt lat="45.2684" lon="5.62151">
        <ele>195.3</ele>
        <time>2011-03-18T15:39:29Z</time>
      </trkpt>
      <trkpt lat="45.2685" lon="5.62142">
        <ele>195.4</ele>
        <time>2011-03-18T15:39:34Z</time>
      </trkpt>
      <trkpt lat="45.26864" lon="5.62133">
        <ele>195</ele>
        <time>2011-03-18T15:39:39Z</time>
      </trkpt>
      <trkpt lat="45.26879" lon="5.62121">
        <ele>195.3</ele>
        <time>2011-03-18T15:39:44Z</time>
      </trkpt>
      <trkpt lat="45.26891" lon="5.62115">
        <ele>196.1</ele>
        <time>2011-03-18T15:39:49Z</time>
      </trkpt>
      <trkpt lat="45.26909" lon="5.62105">
        <ele>194.6</ele>
        <time>2011-03-18T15:39:54Z</time>
      </trkpt>
      <trkpt lat="45.26921" lon="5.621">
        <ele>194.3</ele>
        <time>2011-03-18T15:39:59Z</time>
      </trkpt>
      <trkpt lat="45.26933" lon="5.6209">
        <ele>195.7</ele>
        <time>2011-03-18T15:40:04Z</time>
      </trkpt>
      <trkpt lat="45.26948" lon="5.62084">
        <ele>196.5</ele>
        <time>2011-03-18T15:40:09Z</time>
      </trkpt>
      <trkpt lat="45.26963" lon="5.62075">
        <ele>194.9</ele>
        <time>2011-03-18T15:40:14Z</time>
      </trkpt>
      <trkpt lat="45.26979" lon="5.62064">
        <ele>195.6</ele>
        <time>2011-03-18T15:40:19Z</time>
      </trkpt>
      <trkpt lat="45.26991" lon="5.62057">
        <ele>196.2</ele>
        <time>2011-03-18T15:40:24Z</time>
      </trkpt>
      <trkpt lat="45.27005" lon="5.6205">
        <ele>195.9</ele>
        <time>2011-03-18T15:40:29Z</time>
      </trkpt>
      <trkpt lat="45.27019" lon="5.62041">
        <ele>196</ele>
        <time>2011-03-18T15:40:34Z</time>
      </trkpt>
      <trkpt lat="45.27033" lon="5.62034">
        <ele>196.3</ele>
        <time>2011-03-18T15:40:39Z</time>
      </trkpt>
      <trkpt lat="45.27048" lon="5.62023">
        <ele>196.8</ele>
        <time>2011-03-18T15:40:44Z</time>
      </trkpt>
      <trkpt lat="45.27053" lon="5.62009">
        <ele>199.1</ele>
        <time>2011-03-18T15:40:49Z</time>
      </trkpt>
      <trkpt lat="45.27059" lon="5.62006">
        <ele>199.6</ele>
        <time>2011-03-18T15:40:54Z</time>
      </trkpt>
      <trkpt lat="45.27062" lon="5.62014">
        <ele>197.9</ele>
        <time>2011-03-18T15:40:59Z</time>
      </trkpt>
      <trkpt lat="45.27064" lon="5.62013">
        <ele>198</ele>
        <time>2011-03-18T15:41:04Z</time>
      </trkpt>
      <trkpt lat="45.27077" lon="5.6203">
        <ele>193.6</ele>
        <time>2011-03-18T15:41:09Z</time>
      </trkpt>
      <trkpt lat="45.2708" lon="5.62048">
        <ele>192.4</ele>
        <time>2011-03-18T15:41:14Z</time>
      </trkpt>
      <trkpt lat="45.27086" lon="5.62067">
        <ele>191.6</ele>
        <time>2011-03-18T15:41:19Z</time>
      </trkpt>
      <trkpt lat="45.27093" lon="5.62087">
        <ele>191</ele>
        <time>2011-03-18T15:41:24Z</time>
      </trkpt>
      <trkpt lat="45.27099" lon="5.62108">
        <ele>191</ele>
        <time>2011-03-18T15:41:29Z</time>
      </trkpt>
      <trkpt lat="45.27108" lon="5.62132">
        <ele>191</ele>
        <time>2011-03-18T15:41:34Z</time>
      </trkpt>
      <trkpt lat="45.27113" lon="5.62147">
        <ele>191</ele>
        <time>2011-03-18T15:41:39Z</time>
      </trkpt>
      <trkpt lat="45.27119" lon="5.62167">
        <ele>191</ele>
        <time>2011-03-18T15:41:44Z</time>
      </trkpt>
      <trkpt lat="45.27125" lon="5.62186">
        <ele>191</ele>
        <time>2011-03-18T15:41:49Z</time>
      </trkpt>
      <trkpt lat="45.27132" lon="5.62206">
        <ele>191.7</ele>
        <time>2011-03-18T15:41:54Z</time>
      </trkpt>
      <trkpt lat="45.27139" lon="5.62228">
        <ele>193.7</ele>
        <time>2011-03-18T15:41:59Z</time>
      </trkpt>
      <trkpt lat="45.27144" lon="5.62244">
        <ele>195.9</ele>
        <time>2011-03-18T15:42:04Z</time>
      </trkpt>
      <trkpt lat="45.27152" lon="5.62263">
        <ele>198.5</ele>
        <time>2011-03-18T15:42:09Z</time>
      </trkpt>
      <trkpt lat="45.27167" lon="5.6226">
        <ele>199.3</ele>
        <time>2011-03-18T15:42:14Z</time>
      </trkpt>
      <trkpt lat="45.27183" lon="5.62251">
        <ele>199</ele>
        <time>2011-03-18T15:42:19Z</time>
      </trkpt>
      <trkpt lat="45.27202" lon="5.62239">
        <ele>198.2</ele>
        <time>2011-03-18T15:42:24Z</time>
      </trkpt>
      <trkpt lat="45.27213" lon="5.62232">
        <ele>198.1</ele>
        <time>2011-03-18T15:42:29Z</time>
      </trkpt>
      <trkpt lat="45.27229" lon="5.62224">
        <ele>198.1</ele>
        <time>2011-03-18T15:42:34Z</time>
      </trkpt>
      <trkpt lat="45.27243" lon="5.62214">
        <ele>197</ele>
        <time>2011-03-18T15:42:39Z</time>
      </trkpt>
      <trkpt lat="45.27257" lon="5.62205">
        <ele>196.8</ele>
        <time>2011-03-18T15:42:44Z</time>
      </trkpt>
      <trkpt lat="45.27274" lon="5.62194">
        <ele>197.1</ele>
        <time>2011-03-18T15:42:49Z</time>
      </trkpt>
      <trkpt lat="45.27286" lon="5.62188">
        <ele>196.5</ele>
        <time>2011-03-18T15:42:54Z</time>
      </trkpt>
      <trkpt lat="45.273" lon="5.62178">
        <ele>197</ele>
        <time>2011-03-18T15:42:59Z</time>
      </trkpt>
      <trkpt lat="45.27311" lon="5.62168">
        <ele>198.6</ele>
        <time>2011-03-18T15:43:04Z</time>
      </trkpt>
      <trkpt lat="45.27326" lon="5.62157">
        <ele>197</ele>
        <time>2011-03-18T15:43:09Z</time>
      </trkpt>
      <trkpt lat="45.27342" lon="5.62149">
        <ele>196.1</ele>
        <time>2011-03-18T15:43:14Z</time>
      </trkpt>
      <trkpt lat="45.27359" lon="5.62145">
        <ele>196.5</ele>
        <time>2011-03-18T15:43:19Z</time>
      </trkpt>
      <trkpt lat="45.27375" lon="5.62141">
        <ele>196.8</ele>
        <time>2011-03-18T15:43:24Z</time>
      </trkpt>
      <trkpt lat="45.27387" lon="5.62141">
        <ele>196.8</ele>
        <time>2011-03-18T15:43:29Z</time>
      </trkpt>
      <trkpt lat="45.27401" lon="5.62135">
        <ele>196.5</ele>
        <time>2011-03-18T15:43:34Z</time>
      </trkpt>
      <trkpt lat="45.27422" lon="5.62136">
        <ele>196.7</ele>
        <time>2011-03-18T15:43:39Z</time>
      </trkpt>
      <trkpt lat="45.27433" lon="5.62133">
        <ele>196.5</ele>
        <time>2011-03-18T15:43:44Z</time>
      </trkpt>
      <trkpt lat="45.27453" lon="5.62128">
        <ele>196.3</ele>
        <time>2011-03-18T15:43:49Z</time>
      </trkpt>
      <trkpt lat="45.27461" lon="5.62121">
        <ele>196.1</ele>
        <time>2011-03-18T15:43:54Z</time>
      </trkpt>
      <trkpt lat="45.2748" lon="5.62123">
        <ele>196</ele>
        <time>2011-03-18T15:43:59Z</time>
      </trkpt>
      <trkpt lat="45.27495" lon="5.62125">
        <ele>195.7</ele>
        <time>2011-03-18T15:44:04Z</time>
      </trkpt>
      <trkpt lat="45.27511" lon="5.6213">
        <ele>196.4</ele>
        <time>2011-03-18T15:44:09Z</time>
      </trkpt>
      <trkpt lat="45.27527" lon="5.62132">
        <ele>196.7</ele>
        <time>2011-03-18T15:44:14Z</time>
      </trkpt>
      <trkpt lat="45.27539" lon="5.62134">
        <ele>197.2</ele>
        <time>2011-03-18T15:44:19Z</time>
      </trkpt>
      <trkpt lat="45.27556" lon="5.62134">
        <ele>197.1</ele>
        <time>2011-03-18T15:44:24Z</time>
      </trkpt>
      <trkpt lat="45.27576" lon="5.62134">
        <ele>197.5</ele>
        <time>2011-03-18T15:44:29Z</time>
      </trkpt>
      <trkpt lat="45.27587" lon="5.62131">
        <ele>197.5</ele>
        <time>2011-03-18T15:44:34Z</time>
      </trkpt>
      <trkpt lat="45.27604" lon="5.62121">
        <ele>197.2</ele>
        <time>2011-03-18T15:44:39Z</time>
      </trkpt>
      <trkpt lat="45.27614" lon="5.62115">
        <ele>197.2</ele>
        <time>2011-03-18T15:44:44Z</time>
      </trkpt>
      <trkpt lat="45.2763" lon="5.62111">
        <ele>197.6</ele>
        <time>2011-03-18T15:44:49Z</time>
      </trkpt>
      <trkpt lat="45.27644" lon="5.62104">
        <ele>196.8</ele>
        <time>2011-03-18T15:44:54Z</time>
      </trkpt>
      <trkpt lat="45.27659" lon="5.62101">
        <ele>196.1</ele>
        <time>2011-03-18T15:44:59Z</time>
      </trkpt>
      <trkpt lat="45.27677" lon="5.62096">
        <ele>195.5</ele>
        <time>2011-03-18T15:45:04Z</time>
      </trkpt>
      <trkpt lat="45.27688" lon="5.62096">
        <ele>195.7</ele>
        <time>2011-03-18T15:45:09Z</time>
      </trkpt>
      <trkpt lat="45.27704" lon="5.62093">
        <ele>195.7</ele>
        <time>2011-03-18T15:45:14Z</time>
      </trkpt>
      <trkpt lat="45.27722" lon="5.62092">
        <ele>195.9</ele>
        <time>2011-03-18T15:45:19Z</time>
      </trkpt>
      <trkpt lat="45.27739" lon="5.62088">
        <ele>196.1</ele>
        <time>2011-03-18T15:45:24Z</time>
      </trkpt>
      <trkpt lat="45.27754" lon="5.62078">
        <ele>196</ele>
        <time>2011-03-18T15:45:29Z</time>
      </trkpt>
      <trkpt lat="45.27766" lon="5.62073">
        <ele>195.2</ele>
        <time>2011-03-18T15:45:34Z</time>
      </trkpt>
      <trkpt lat="45.2778" lon="5.62071">
        <ele>194.7</ele>
        <time>2011-03-18T15:45:39Z</time>
      </trkpt>
      <trkpt lat="45.27794" lon="5.62065">
        <ele>193.5</ele>
        <time>2011-03-18T15:45:44Z</time>
      </trkpt>
      <trkpt lat="45.27809" lon="5.62061">
        <ele>193</ele>
        <time>2011-03-18T15:45:49Z</time>
      </trkpt>
      <trkpt lat="45.2783" lon="5.62058">
        <ele>193.9</ele>
        <time>2011-03-18T15:45:54Z</time>
      </trkpt>
      <trkpt lat="45.27843" lon="5.62058">
        <ele>194</ele>
        <time>2011-03-18T15:45:59Z</time>
      </trkpt>
      <trkpt lat="45.27858" lon="5.62058">
        <ele>194</ele>
        <time>2011-03-18T15:46:04Z</time>
      </trkpt>
      <trkpt lat="45.27872" lon="5.62055">
        <ele>194</ele>
        <time>2011-03-18T15:46:09Z</time>
      </trkpt>
      <trkpt lat="45.27889" lon="5.62056">
        <ele>194</ele>
        <time>2011-03-18T15:46:14Z</time>
      </trkpt>
      <trkpt lat="45.27906" lon="5.62056">
        <ele>194.6</ele>
        <time>2011-03-18T15:46:19Z</time>
      </trkpt>
      <trkpt lat="45.27917" lon="5.62056">
        <ele>195</ele>
        <time>2011-03-18T15:46:24Z</time>
      </trkpt>
      <trkpt lat="45.27933" lon="5.62057">
        <ele>194.9</ele>
        <time>2011-03-18T15:46:29Z</time>
      </trkpt>
      <trkpt lat="45.27948" lon="5.62057">
        <ele>195.1</ele>
        <time>2011-03-18T15:46:34Z</time>
      </trkpt>
      <trkpt lat="45.27964" lon="5.62057">
        <ele>195.7</ele>
        <time>2011-03-18T15:46:39Z</time>
      </trkpt>
      <trkpt lat="45.27983" lon="5.62056">
        <ele>196.4</ele>
        <time>2011-03-18T15:46:44Z</time>
      </trkpt>
      <trkpt lat="45.27995" lon="5.62055">
        <ele>196.6</ele>
        <time>2011-03-18T15:46:49Z</time>
      </trkpt>
      <trkpt lat="45.2801" lon="5.62052">
        <ele>195.9</ele>
        <time>2011-03-18T15:46:54Z</time>
      </trkpt>
      <trkpt lat="45.28024" lon="5.62051">
        <ele>195.4</ele>
        <time>2011-03-18T15:46:59Z</time>
      </trkpt>
      <trkpt lat="45.28038" lon="5.62048">
        <ele>194.5</ele>
        <time>2011-03-18T15:47:04Z</time>
      </trkpt>
      <trkpt lat="45.28054" lon="5.62048">
        <ele>194.7</ele>
        <time>2011-03-18T15:47:09Z</time>
      </trkpt>
      <trkpt lat="45.2807" lon="5.62049">
        <ele>194.7</ele>
        <time>2011-03-18T15:47:14Z</time>
      </trkpt>
      <trkpt lat="45.28086" lon="5.62049">
        <ele>194.8</ele>
        <time>2011-03-18T15:47:19Z</time>
      </trkpt>
      <trkpt lat="45.28101" lon="5.62048">
        <ele>195</ele>
        <time>2011-03-18T15:47:24Z</time>
      </trkpt>
      <trkpt lat="45.28118" lon="5.62045">
        <ele>194.7</ele>
        <time>2011-03-18T15:47:29Z</time>
      </trkpt>
      <trkpt lat="45.28137" lon="5.62043">
        <ele>194.1</ele>
        <time>2011-03-18T15:47:34Z</time>
      </trkpt>
      <trkpt lat="45.28147" lon="5.62042">
        <ele>193.7</ele>
        <time>2011-03-18T15:47:39Z</time>
      </trkpt>
      <trkpt lat="45.28167" lon="5.62039">
        <ele>193</ele>
        <time>2011-03-18T15:47:44Z</time>
      </trkpt>
      <trkpt lat="45.28178" lon="5.62038">
        <ele>193.8</ele>
        <time>2011-03-18T15:47:49Z</time>
      </trkpt>
      <trkpt lat="45.28194" lon="5.62036">
        <ele>195</ele>
        <time>2011-03-18T15:47:54Z</time>
      </trkpt>
      <trkpt lat="45.28209" lon="5.62033">
        <ele>195.7</ele>
        <time>2011-03-18T15:47:59Z</time>
      </trkpt>
      <trkpt lat="45.28224" lon="5.62029">
        <ele>196.7</ele>
        <time>2011-03-18T15:48:04Z</time>
      </trkpt>
      <trkpt lat="45.28242" lon="5.62023">
        <ele>194.7</ele>
        <time>2011-03-18T15:48:09Z</time>
      </trkpt>
      <trkpt lat="45.28256" lon="5.62021">
        <ele>193.9</ele>
        <time>2011-03-18T15:48:14Z</time>
      </trkpt>
      <trkpt lat="45.28271" lon="5.62019">
        <ele>193.4</ele>
        <time>2011-03-18T15:48:19Z</time>
      </trkpt>
      <trkpt lat="45.28283" lon="5.62012">
        <ele>193</ele>
        <time>2011-03-18T15:48:24Z</time>
      </trkpt>
      <trkpt lat="45.28297" lon="5.62009">
        <ele>193.4</ele>
        <time>2011-03-18T15:48:29Z</time>
      </trkpt>
      <trkpt lat="45.28316" lon="5.62006">
        <ele>194</ele>
        <time>2011-03-18T15:48:34Z</time>
      </trkpt>
      <trkpt lat="45.28331" lon="5.62004">
        <ele>194.5</ele>
        <time>2011-03-18T15:48:39Z</time>
      </trkpt>
      <trkpt lat="45.28347" lon="5.62001">
        <ele>195.3</ele>
        <time>2011-03-18T15:48:44Z</time>
      </trkpt>
      <trkpt lat="45.28363" lon="5.61997">
        <ele>195.4</ele>
        <time>2011-03-18T15:48:49Z</time>
      </trkpt>
      <trkpt lat="45.28374" lon="5.61994">
        <ele>194.7</ele>
        <time>2011-03-18T15:48:54Z</time>
      </trkpt>
      <trkpt lat="45.28392" lon="5.61989">
        <ele>193.5</ele>
        <time>2011-03-18T15:48:59Z</time>
      </trkpt>
      <trkpt lat="45.28403" lon="5.61985">
        <ele>192.5</ele>
        <time>2011-03-18T15:49:04Z</time>
      </trkpt>
      <trkpt lat="45.28419" lon="5.61982">
        <ele>192.5</ele>
        <time>2011-03-18T15:49:09Z</time>
      </trkpt>
      <trkpt lat="45.28432" lon="5.61978">
        <ele>193.3</ele>
        <time>2011-03-18T15:49:14Z</time>
      </trkpt>
      <trkpt lat="45.28447" lon="5.61977">
        <ele>194.2</ele>
        <time>2011-03-18T15:49:19Z</time>
      </trkpt>
      <trkpt lat="45.28464" lon="5.61972">
        <ele>194.6</ele>
        <time>2011-03-18T15:49:24Z</time>
      </trkpt>
      <trkpt lat="45.28476" lon="5.6197">
        <ele>194.8</ele>
        <time>2011-03-18T15:49:29Z</time>
      </trkpt>
      <trkpt lat="45.28489" lon="5.61971">
        <ele>195.4</ele>
        <time>2011-03-18T15:49:34Z</time>
      </trkpt>
      <trkpt lat="45.28494" lon="5.61972">
        <ele>195.8</ele>
        <time>2011-03-18T15:49:39Z</time>
      </trkpt>
      <trkpt lat="45.28509" lon="5.61967">
        <ele>195</ele>
        <time>2011-03-18T15:49:44Z</time>
      </trkpt>
      <trkpt lat="45.28527" lon="5.61964">
        <ele>194.5</ele>
        <time>2011-03-18T15:49:49Z</time>
      </trkpt>
      <trkpt lat="45.28539" lon="5.61963">
        <ele>194.2</ele>
        <time>2011-03-18T15:49:54Z</time>
      </trkpt>
      <trkpt lat="45.28556" lon="5.6196">
        <ele>193.6</ele>
        <time>2011-03-18T15:49:59Z</time>
      </trkpt>
      <trkpt lat="45.2857" lon="5.61957">
        <ele>193.7</ele>
        <time>2011-03-18T15:50:04Z</time>
      </trkpt>
      <trkpt lat="45.28584" lon="5.61954">
        <ele>194.1</ele>
        <time>2011-03-18T15:50:09Z</time>
      </trkpt>
      <trkpt lat="45.28603" lon="5.61947">
        <ele>196</ele>
        <time>2011-03-18T15:50:14Z</time>
      </trkpt>
      <trkpt lat="45.28614" lon="5.61942">
        <ele>196.4</ele>
        <time>2011-03-18T15:50:19Z</time>
      </trkpt>
      <trkpt lat="45.28631" lon="5.61937">
        <ele>195.3</ele>
        <time>2011-03-18T15:50:24Z</time>
      </trkpt>
      <trkpt lat="45.28647" lon="5.61933">
        <ele>194.8</ele>
        <time>2011-03-18T15:50:29Z</time>
      </trkpt>
      <trkpt lat="45.2866" lon="5.6193">
        <ele>194.7</ele>
        <time>2011-03-18T15:50:34Z</time>
      </trkpt>
      <trkpt lat="45.28674" lon="5.61927">
        <ele>194.7</ele>
        <time>2011-03-18T15:50:39Z</time>
      </trkpt>
      <trkpt lat="45.2869" lon="5.61922">
        <ele>194.6</ele>
        <time>2011-03-18T15:50:44Z</time>
      </trkpt>
      <trkpt lat="45.28706" lon="5.61919">
        <ele>195.4</ele>
        <time>2011-03-18T15:50:49Z</time>
      </trkpt>
      <trkpt lat="45.28719" lon="5.61915">
        <ele>196.3</ele>
        <time>2011-03-18T15:50:54Z</time>
      </trkpt>
      <trkpt lat="45.28735" lon="5.61912">
        <ele>196</ele>
        <time>2011-03-18T15:50:59Z</time>
      </trkpt>
      <trkpt lat="45.28748" lon="5.6191">
        <ele>195.8</ele>
        <time>2011-03-18T15:51:04Z</time>
      </trkpt>
      <trkpt lat="45.28764" lon="5.61908">
        <ele>196.6</ele>
        <time>2011-03-18T15:51:09Z</time>
      </trkpt>
      <trkpt lat="45.28779" lon="5.61904">
        <ele>197.2</ele>
        <time>2011-03-18T15:51:14Z</time>
      </trkpt>
      <trkpt lat="45.28794" lon="5.61901">
        <ele>196.8</ele>
        <time>2011-03-18T15:51:19Z</time>
      </trkpt>
      <trkpt lat="45.28808" lon="5.61897">
        <ele>196.1</ele>
        <time>2011-03-18T15:51:24Z</time>
      </trkpt>
      <trkpt lat="45.28823" lon="5.61892">
        <ele>196</ele>
        <time>2011-03-18T15:51:29Z</time>
      </trkpt>
      <trkpt lat="45.28838" lon="5.61888">
        <ele>196</ele>
        <time>2011-03-18T15:51:34Z</time>
      </trkpt>
      <trkpt lat="45.28855" lon="5.61885">
        <ele>195.9</ele>
        <time>2011-03-18T15:51:39Z</time>
      </trkpt>
      <trkpt lat="45.28867" lon="5.61881">
        <ele>195.1</ele>
        <time>2011-03-18T15:51:44Z</time>
      </trkpt>
      <trkpt lat="45.28883" lon="5.61877">
        <ele>194.7</ele>
        <time>2011-03-18T15:51:49Z</time>
      </trkpt>
      <trkpt lat="45.28901" lon="5.61874">
        <ele>194.9</ele>
        <time>2011-03-18T15:51:54Z</time>
      </trkpt>
      <trkpt lat="45.28914" lon="5.61873">
        <ele>195.3</ele>
        <time>2011-03-18T15:51:59Z</time>
      </trkpt>
      <trkpt lat="45.28933" lon="5.61868">
        <ele>195.4</ele>
        <time>2011-03-18T15:52:04Z</time>
      </trkpt>
      <trkpt lat="45.28945" lon="5.61865">
        <ele>195.6</ele>
        <time>2011-03-18T15:52:09Z</time>
      </trkpt>
      <trkpt lat="45.28958" lon="5.61864">
        <ele>195.8</ele>
        <time>2011-03-18T15:52:14Z</time>
      </trkpt>
      <trkpt lat="45.28972" lon="5.6186">
        <ele>195.7</ele>
        <time>2011-03-18T15:52:19Z</time>
      </trkpt>
      <trkpt lat="45.28987" lon="5.61854">
        <ele>195</ele>
        <time>2011-03-18T15:52:24Z</time>
      </trkpt>
      <trkpt lat="45.29005" lon="5.6185">
        <ele>194.9</ele>
        <time>2011-03-18T15:52:29Z</time>
      </trkpt>
      <trkpt lat="45.29017" lon="5.61847">
        <ele>195.2</ele>
        <time>2011-03-18T15:52:34Z</time>
      </trkpt>
      <trkpt lat="45.29029" lon="5.61842">
        <ele>194.9</ele>
        <time>2011-03-18T15:52:39Z</time>
      </trkpt>
      <trkpt lat="45.29045" lon="5.61837">
        <ele>194.8</ele>
        <time>2011-03-18T15:52:44Z</time>
      </trkpt>
      <trkpt lat="45.29062" lon="5.61834">
        <ele>195</ele>
        <time>2011-03-18T15:52:49Z</time>
      </trkpt>
      <trkpt lat="45.29079" lon="5.6183">
        <ele>194.5</ele>
        <time>2011-03-18T15:52:54Z</time>
      </trkpt>
      <trkpt lat="45.29091" lon="5.61828">
        <ele>194.5</ele>
        <time>2011-03-18T15:52:59Z</time>
      </trkpt>
      <trkpt lat="45.29108" lon="5.61827">
        <ele>194.7</ele>
        <time>2011-03-18T15:53:04Z</time>
      </trkpt>
      <trkpt lat="45.29124" lon="5.61823">
        <ele>194.5</ele>
        <time>2011-03-18T15:53:09Z</time>
      </trkpt>
      <trkpt lat="45.29137" lon="5.61819">
        <ele>193.9</ele>
        <time>2011-03-18T15:53:14Z</time>
      </trkpt>
      <trkpt lat="45.29154" lon="5.61815">
        <ele>194.5</ele>
        <time>2011-03-18T15:53:19Z</time>
      </trkpt>
      <trkpt lat="45.29166" lon="5.61811">
        <ele>194.9</ele>
        <time>2011-03-18T15:53:24Z</time>
      </trkpt>
      <trkpt lat="45.29182" lon="5.61808">
        <ele>195</ele>
        <time>2011-03-18T15:53:29Z</time>
      </trkpt>
      <trkpt lat="45.29197" lon="5.61808">
        <ele>195.3</ele>
        <time>2011-03-18T15:53:34Z</time>
      </trkpt>
      <trkpt lat="45.29213" lon="5.61805">
        <ele>195</ele>
        <time>2011-03-18T15:53:39Z</time>
      </trkpt>
      <trkpt lat="45.2923" lon="5.61802">
        <ele>194.9</ele>
        <time>2011-03-18T15:53:44Z</time>
      </trkpt>
      <trkpt lat="45.29243" lon="5.61799">
        <ele>195</ele>
        <time>2011-03-18T15:53:49Z</time>
      </trkpt>
      <trkpt lat="45.29259" lon="5.61793">
        <ele>193.7</ele>
        <time>2011-03-18T15:53:54Z</time>
      </trkpt>
      <trkpt lat="45.29273" lon="5.61787">
        <ele>192.9</ele>
        <time>2011-03-18T15:53:59Z</time>
      </trkpt>
      <trkpt lat="45.29287" lon="5.61782">
        <ele>193.4</ele>
        <time>2011-03-18T15:54:04Z</time>
      </trkpt>
      <trkpt lat="45.29302" lon="5.61774">
        <ele>194</ele>
        <time>2011-03-18T15:54:09Z</time>
      </trkpt>
      <trkpt lat="45.29313" lon="5.6177">
        <ele>193.9</ele>
        <time>2011-03-18T15:54:14Z</time>
      </trkpt>
      <trkpt lat="45.29327" lon="5.61765">
        <ele>193.6</ele>
        <time>2011-03-18T15:54:19Z</time>
      </trkpt>
      <trkpt lat="45.29343" lon="5.61761">
        <ele>193.2</ele>
        <time>2011-03-18T15:54:24Z</time>
      </trkpt>
      <trkpt lat="45.29361" lon="5.61758">
        <ele>193.2</ele>
        <time>2011-03-18T15:54:29Z</time>
      </trkpt>
      <trkpt lat="45.29377" lon="5.61753">
        <ele>194.1</ele>
        <time>2011-03-18T15:54:34Z</time>
      </trkpt>
      <trkpt lat="45.29391" lon="5.61748">
        <ele>194.9</ele>
        <time>2011-03-18T15:54:39Z</time>
      </trkpt>
      <trkpt lat="45.29404" lon="5.61746">
        <ele>194.9</ele>
        <time>2011-03-18T15:54:44Z</time>
      </trkpt>
      <trkpt lat="45.29419" lon="5.61743">
        <ele>194.7</ele>
        <time>2011-03-18T15:54:49Z</time>
      </trkpt>
      <trkpt lat="45.29434" lon="5.61739">
        <ele>194.1</ele>
        <time>2011-03-18T15:54:54Z</time>
      </trkpt>
      <trkpt lat="45.29447" lon="5.61736">
        <ele>194.1</ele>
        <time>2011-03-18T15:54:59Z</time>
      </trkpt>
      <trkpt lat="45.29463" lon="5.61734">
        <ele>194.5</ele>
        <time>2011-03-18T15:55:04Z</time>
      </trkpt>
      <trkpt lat="45.29478" lon="5.61732">
        <ele>194.7</ele>
        <time>2011-03-18T15:55:09Z</time>
      </trkpt>
      <trkpt lat="45.29492" lon="5.61729">
        <ele>194.4</ele>
        <time>2011-03-18T15:55:14Z</time>
      </trkpt>
      <trkpt lat="45.29508" lon="5.61726">
        <ele>194.7</ele>
        <time>2011-03-18T15:55:19Z</time>
      </trkpt>
      <trkpt lat="45.29525" lon="5.6172">
        <ele>195.8</ele>
        <time>2011-03-18T15:55:24Z</time>
      </trkpt>
      <trkpt lat="45.29538" lon="5.61718">
        <ele>195.5</ele>
        <time>2011-03-18T15:55:29Z</time>
      </trkpt>
      <trkpt lat="45.29557" lon="5.61716">
        <ele>194.8</ele>
        <time>2011-03-18T15:55:34Z</time>
      </trkpt>
      <trkpt lat="45.29569" lon="5.61714">
        <ele>194.8</ele>
        <time>2011-03-18T15:55:39Z</time>
      </trkpt>
      <trkpt lat="45.29587" lon="5.61712">
        <ele>194.7</ele>
        <time>2011-03-18T15:55:44Z</time>
      </trkpt>
      <trkpt lat="45.296" lon="5.61708">
        <ele>194.2</ele>
        <time>2011-03-18T15:55:49Z</time>
      </trkpt>
      <trkpt lat="45.29613" lon="5.61701">
        <ele>194.2</ele>
        <time>2011-03-18T15:55:54Z</time>
      </trkpt>
      <trkpt lat="45.29628" lon="5.61688">
        <ele>194.1</ele>
        <time>2011-03-18T15:55:59Z</time>
      </trkpt>
      <trkpt lat="45.29638" lon="5.6168">
        <ele>194.1</ele>
        <time>2011-03-18T15:56:04Z</time>
      </trkpt>
      <trkpt lat="45.2965" lon="5.61671">
        <ele>194.2</ele>
        <time>2011-03-18T15:56:09Z</time>
      </trkpt>
      <trkpt lat="45.29664" lon="5.61659">
        <ele>194.1</ele>
        <time>2011-03-18T15:56:14Z</time>
      </trkpt>
      <trkpt lat="45.29676" lon="5.61652">
        <ele>193.4</ele>
        <time>2011-03-18T15:56:19Z</time>
      </trkpt>
      <trkpt lat="45.29693" lon="5.61638">
        <ele>194.9</ele>
        <time>2011-03-18T15:56:24Z</time>
      </trkpt>
      <trkpt lat="45.29703" lon="5.61627">
        <ele>194</ele>
        <time>2011-03-18T15:56:29Z</time>
      </trkpt>
      <trkpt lat="45.29716" lon="5.61611">
        <ele>195</ele>
        <time>2011-03-18T15:56:34Z</time>
      </trkpt>
      <trkpt lat="45.29731" lon="5.61601">
        <ele>193.3</ele>
        <time>2011-03-18T15:56:39Z</time>
      </trkpt>
      <trkpt lat="45.29743" lon="5.61592">
        <ele>192.5</ele>
        <time>2011-03-18T15:56:44Z</time>
      </trkpt>
      <trkpt lat="45.29758" lon="5.61577">
        <ele>192.2</ele>
        <time>2011-03-18T15:56:49Z</time>
      </trkpt>
      <trkpt lat="45.29765" lon="5.61567">
        <ele>192.1</ele>
        <time>2011-03-18T15:56:54Z</time>
      </trkpt>
      <trkpt lat="45.29777" lon="5.61555">
        <ele>192.9</ele>
        <time>2011-03-18T15:56:59Z</time>
      </trkpt>
      <trkpt lat="45.29788" lon="5.61541">
        <ele>192</ele>
        <time>2011-03-18T15:57:04Z</time>
      </trkpt>
      <trkpt lat="45.29799" lon="5.61531">
        <ele>192.9</ele>
        <time>2011-03-18T15:57:09Z</time>
      </trkpt>
      <trkpt lat="45.29816" lon="5.61514">
        <ele>191.6</ele>
        <time>2011-03-18T15:57:14Z</time>
      </trkpt>
      <trkpt lat="45.29826" lon="5.61503">
        <ele>192</ele>
        <time>2011-03-18T15:57:19Z</time>
      </trkpt>
      <trkpt lat="45.2984" lon="5.61493">
        <ele>191.9</ele>
        <time>2011-03-18T15:57:24Z</time>
      </trkpt>
      <trkpt lat="45.29854" lon="5.61481">
        <ele>192.3</ele>
        <time>2011-03-18T15:57:29Z</time>
      </trkpt>
      <trkpt lat="45.29867" lon="5.61467">
        <ele>192.4</ele>
        <time>2011-03-18T15:57:34Z</time>
      </trkpt>
      <trkpt lat="45.29884" lon="5.61454">
        <ele>191.5</ele>
        <time>2011-03-18T15:57:39Z</time>
      </trkpt>
      <trkpt lat="45.29896" lon="5.61445">
        <ele>192</ele>
        <time>2011-03-18T15:57:44Z</time>
      </trkpt>
      <trkpt lat="45.29907" lon="5.61434">
        <ele>190.9</ele>
        <time>2011-03-18T15:57:49Z</time>
      </trkpt>
      <trkpt lat="45.29916" lon="5.61418">
        <ele>192.8</ele>
        <time>2011-03-18T15:57:54Z</time>
      </trkpt>
      <trkpt lat="45.29929" lon="5.61407">
        <ele>191.1</ele>
        <time>2011-03-18T15:57:59Z</time>
      </trkpt>
      <trkpt lat="45.29943" lon="5.61395">
        <ele>192.1</ele>
        <time>2011-03-18T15:58:04Z</time>
      </trkpt>
      <trkpt lat="45.29952" lon="5.61375">
        <ele>191.7</ele>
        <time>2011-03-18T15:58:09Z</time>
      </trkpt>
      <trkpt lat="45.29964" lon="5.6136">
        <ele>191.7</ele>
        <time>2011-03-18T15:58:14Z</time>
      </trkpt>
      <trkpt lat="45.29975" lon="5.61343">
        <ele>192.4</ele>
        <time>2011-03-18T15:58:19Z</time>
      </trkpt>
      <trkpt lat="45.29987" lon="5.61328">
        <ele>191</ele>
        <time>2011-03-18T15:58:24Z</time>
      </trkpt>
      <trkpt lat="45.29996" lon="5.61309">
        <ele>191.5</ele>
        <time>2011-03-18T15:58:29Z</time>
      </trkpt>
      <trkpt lat="45.30005" lon="5.61292">
        <ele>192.2</ele>
        <time>2011-03-18T15:58:34Z</time>
      </trkpt>
      <trkpt lat="45.30012" lon="5.61275">
        <ele>191.6</ele>
        <time>2011-03-18T15:58:39Z</time>
      </trkpt>
      <trkpt lat="45.30022" lon="5.61259">
        <ele>191.3</ele>
        <time>2011-03-18T15:58:44Z</time>
      </trkpt>
      <trkpt lat="45.30029" lon="5.61238">
        <ele>192.8</ele>
        <time>2011-03-18T15:58:49Z</time>
      </trkpt>
      <trkpt lat="45.30039" lon="5.6122">
        <ele>192.3</ele>
        <time>2011-03-18T15:58:54Z</time>
      </trkpt>
      <trkpt lat="45.30045" lon="5.61203">
        <ele>191.7</ele>
        <time>2011-03-18T15:58:59Z</time>
      </trkpt>
      <trkpt lat="45.30055" lon="5.61186">
        <ele>191.6</ele>
        <time>2011-03-18T15:59:04Z</time>
      </trkpt>
      <trkpt lat="45.30061" lon="5.61166">
        <ele>192.6</ele>
        <time>2011-03-18T15:59:09Z</time>
      </trkpt>
      <trkpt lat="45.30068" lon="5.61147">
        <ele>191.8</ele>
        <time>2011-03-18T15:59:14Z</time>
      </trkpt>
      <trkpt lat="45.30074" lon="5.61128">
        <ele>191.5</ele>
        <time>2011-03-18T15:59:19Z</time>
      </trkpt>
      <trkpt lat="45.30082" lon="5.61108">
        <ele>192.8</ele>
        <time>2011-03-18T15:59:24Z</time>
      </trkpt>
      <trkpt lat="45.30091" lon="5.61084">
        <ele>192.2</ele>
        <time>2011-03-18T15:59:29Z</time>
      </trkpt>
      <trkpt lat="45.30098" lon="5.61071">
        <ele>191</ele>
        <time>2011-03-18T15:59:34Z</time>
      </trkpt>
      <trkpt lat="45.30107" lon="5.61056">
        <ele>190.2</ele>
        <time>2011-03-18T15:59:39Z</time>
      </trkpt>
      <trkpt lat="45.30116" lon="5.61032">
        <ele>192.3</ele>
        <time>2011-03-18T15:59:44Z</time>
      </trkpt>
      <trkpt lat="45.30123" lon="5.61017">
        <ele>191.5</ele>
        <time>2011-03-18T15:59:49Z</time>
      </trkpt>
      <trkpt lat="45.30133" lon="5.60995">
        <ele>190.1</ele>
        <time>2011-03-18T15:59:54Z</time>
      </trkpt>
      <trkpt lat="45.30138" lon="5.60981">
        <ele>191.7</ele>
        <time>2011-03-18T15:59:59Z</time>
      </trkpt>
      <trkpt lat="45.30146" lon="5.60963">
        <ele>192.5</ele>
        <time>2011-03-18T16:00:04Z</time>
      </trkpt>
      <trkpt lat="45.30153" lon="5.60944">
        <ele>191</ele>
        <time>2011-03-18T16:00:09Z</time>
      </trkpt>
      <trkpt lat="45.30163" lon="5.60925">
        <ele>190.6</ele>
        <time>2011-03-18T16:00:14Z</time>
      </trkpt>
      <trkpt lat="45.30172" lon="5.60906">
        <ele>192.2</ele>
        <time>2011-03-18T16:00:19Z</time>
      </trkpt>
      <trkpt lat="45.30179" lon="5.60887">
        <ele>193</ele>
        <time>2011-03-18T16:00:24Z</time>
      </trkpt>
      <trkpt lat="45.30184" lon="5.60865">
        <ele>189.9</ele>
        <time>2011-03-18T16:00:29Z</time>
      </trkpt>
      <trkpt lat="45.30194" lon="5.60847">
        <ele>190.6</ele>
        <time>2011-03-18T16:00:34Z</time>
      </trkpt>
      <trkpt lat="45.30197" lon="5.60827">
        <ele>193</ele>
        <time>2011-03-18T16:00:39Z</time>
      </trkpt>
      <trkpt lat="45.30208" lon="5.60805">
        <ele>191.5</ele>
        <time>2011-03-18T16:00:44Z</time>
      </trkpt>
      <trkpt lat="45.30212" lon="5.60788">
        <ele>190.4</ele>
        <time>2011-03-18T16:00:49Z</time>
      </trkpt>
      <trkpt lat="45.30217" lon="5.60771">
        <ele>190.6</ele>
        <time>2011-03-18T16:00:54Z</time>
      </trkpt>
      <trkpt lat="45.30225" lon="5.60754">
        <ele>193.3</ele>
        <time>2011-03-18T16:00:59Z</time>
      </trkpt>
      <trkpt lat="45.30234" lon="5.60738">
        <ele>191.8</ele>
        <time>2011-03-18T16:01:04Z</time>
      </trkpt>
      <trkpt lat="45.30243" lon="5.60713">
        <ele>190</ele>
        <time>2011-03-18T16:01:09Z</time>
      </trkpt>
      <trkpt lat="45.30249" lon="5.60698">
        <ele>191.5</ele>
        <time>2011-03-18T16:01:14Z</time>
      </trkpt>
      <trkpt lat="45.30256" lon="5.60679">
        <ele>193</ele>
        <time>2011-03-18T16:01:19Z</time>
      </trkpt>
      <trkpt lat="45.30263" lon="5.6066">
        <ele>192.6</ele>
        <time>2011-03-18T16:01:24Z</time>
      </trkpt>
      <trkpt lat="45.30267" lon="5.60636">
        <ele>190.5</ele>
        <time>2011-03-18T16:01:29Z</time>
      </trkpt>
      <trkpt lat="45.30273" lon="5.60613">
        <ele>190.1</ele>
        <time>2011-03-18T16:01:34Z</time>
      </trkpt>
      <trkpt lat="45.30274" lon="5.60595">
        <ele>191.5</ele>
        <time>2011-03-18T16:01:39Z</time>
      </trkpt>
      <trkpt lat="45.30277" lon="5.60573">
        <ele>193.3</ele>
        <time>2011-03-18T16:01:44Z</time>
      </trkpt>
      <trkpt lat="45.30279" lon="5.60552">
        <ele>194</ele>
        <time>2011-03-18T16:01:49Z</time>
      </trkpt>
      <trkpt lat="45.30282" lon="5.60532">
        <ele>193.7</ele>
        <time>2011-03-18T16:01:54Z</time>
      </trkpt>
      <trkpt lat="45.30283" lon="5.60512">
        <ele>193</ele>
        <time>2011-03-18T16:01:59Z</time>
      </trkpt>
      <trkpt lat="45.30285" lon="5.60488">
        <ele>191.6</ele>
        <time>2011-03-18T16:02:04Z</time>
      </trkpt>
      <trkpt lat="45.30288" lon="5.60465">
        <ele>189.8</ele>
        <time>2011-03-18T16:02:09Z</time>
      </trkpt>
      <trkpt lat="45.30292" lon="5.60443">
        <ele>188.5</ele>
        <time>2011-03-18T16:02:14Z</time>
      </trkpt>
      <trkpt lat="45.30296" lon="5.60421">
        <ele>188.7</ele>
        <time>2011-03-18T16:02:19Z</time>
      </trkpt>
      <trkpt lat="45.30299" lon="5.60398">
        <ele>189.9</ele>
        <time>2011-03-18T16:02:24Z</time>
      </trkpt>
      <trkpt lat="45.30303" lon="5.60378">
        <ele>192</ele>
        <time>2011-03-18T16:02:29Z</time>
      </trkpt>
      <trkpt lat="45.30305" lon="5.60357">
        <ele>193.9</ele>
        <time>2011-03-18T16:02:34Z</time>
      </trkpt>
      <trkpt lat="45.30308" lon="5.60336">
        <ele>194</ele>
        <time>2011-03-18T16:02:39Z</time>
      </trkpt>
      <trkpt lat="45.30309" lon="5.60316">
        <ele>194</ele>
        <time>2011-03-18T16:02:44Z</time>
      </trkpt>
      <trkpt lat="45.30312" lon="5.60296">
        <ele>193.9</ele>
        <time>2011-03-18T16:02:49Z</time>
      </trkpt>
      <trkpt lat="45.30312" lon="5.60275">
        <ele>193.7</ele>
        <time>2011-03-18T16:02:54Z</time>
      </trkpt>
      <trkpt lat="45.30314" lon="5.60252">
        <ele>192.8</ele>
        <time>2011-03-18T16:02:59Z</time>
      </trkpt>
      <trkpt lat="45.30314" lon="5.60231">
        <ele>192.5</ele>
        <time>2011-03-18T16:03:04Z</time>
      </trkpt>
      <trkpt lat="45.30314" lon="5.6021">
        <ele>192</ele>
        <time>2011-03-18T16:03:09Z</time>
      </trkpt>
      <trkpt lat="45.30316" lon="5.60191">
        <ele>191.1</ele>
        <time>2011-03-18T16:03:14Z</time>
      </trkpt>
      <trkpt lat="45.30318" lon="5.60168">
        <ele>190.6</ele>
        <time>2011-03-18T16:03:19Z</time>
      </trkpt>
      <trkpt lat="45.30319" lon="5.60142">
        <ele>189.6</ele>
        <time>2011-03-18T16:03:24Z</time>
      </trkpt>
      <trkpt lat="45.30321" lon="5.60125">
        <ele>189.2</ele>
        <time>2011-03-18T16:03:29Z</time>
      </trkpt>
      <trkpt lat="45.30323" lon="5.60101">
        <ele>188.9</ele>
        <time>2011-03-18T16:03:34Z</time>
      </trkpt>
      <trkpt lat="45.30323" lon="5.60079">
        <ele>188.6</ele>
        <time>2011-03-18T16:03:39Z</time>
      </trkpt>
      <trkpt lat="45.30321" lon="5.60057">
        <ele>188.6</ele>
        <time>2011-03-18T16:03:44Z</time>
      </trkpt>
      <trkpt lat="45.30321" lon="5.60032">
        <ele>188.1</ele>
        <time>2011-03-18T16:03:49Z</time>
      </trkpt>
      <trkpt lat="45.30321" lon="5.60015">
        <ele>188.8</ele>
        <time>2011-03-18T16:03:54Z</time>
      </trkpt>
      <trkpt lat="45.30322" lon="5.59992">
        <ele>189.5</ele>
        <time>2011-03-18T16:03:59Z</time>
      </trkpt>
      <trkpt lat="45.30324" lon="5.59975">
        <ele>189.8</ele>
        <time>2011-03-18T16:04:04Z</time>
      </trkpt>
      <trkpt lat="45.30325" lon="5.59953">
        <ele>189.6</ele>
        <time>2011-03-18T16:04:09Z</time>
      </trkpt>
      <trkpt lat="45.30329" lon="5.59944">
        <ele>190.3</ele>
        <time>2011-03-18T16:04:14Z</time>
      </trkpt>
      <trkpt lat="45.3033" lon="5.59961">
        <ele>190.8</ele>
        <time>2011-03-18T16:04:19Z</time>
      </trkpt>
      <trkpt lat="45.30333" lon="5.59977">
        <ele>192</ele>
        <time>2011-03-18T16:04:24Z</time>
      </trkpt>
      <trkpt lat="45.30342" lon="5.59996">
        <ele>191.5</ele>
        <time>2011-03-18T16:04:29Z</time>
      </trkpt>
      <trkpt lat="45.30351" lon="5.60006">
        <ele>189.6</ele>
        <time>2011-03-18T16:04:34Z</time>
      </trkpt>
      <trkpt lat="45.30362" lon="5.60029">
        <ele>188</ele>
        <time>2011-03-18T16:04:39Z</time>
      </trkpt>
      <trkpt lat="45.30354" lon="5.60027">
        <ele>188.3</ele>
        <time>2011-03-18T16:04:44Z</time>
      </trkpt>
      <trkpt lat="45.30343" lon="5.60013">
        <ele>190.1</ele>
        <time>2011-03-18T16:04:49Z</time>
      </trkpt>
      <trkpt lat="45.30336" lon="5.59992">
        <ele>192.2</ele>
        <time>2011-03-18T16:04:54Z</time>
      </trkpt>
      <trkpt lat="45.30336" lon="5.59968">
        <ele>191.6</ele>
        <time>2011-03-18T16:04:59Z</time>
      </trkpt>
      <trkpt lat="45.3034" lon="5.59942">
        <ele>190.6</ele>
        <time>2011-03-18T16:05:04Z</time>
      </trkpt>
      <trkpt lat="45.30343" lon="5.59926">
        <ele>190.6</ele>
        <time>2011-03-18T16:05:09Z</time>
      </trkpt>
      <trkpt lat="45.30345" lon="5.59904">
        <ele>190.1</ele>
        <time>2011-03-18T16:05:14Z</time>
      </trkpt>
      <trkpt lat="45.30346" lon="5.59881">
        <ele>189.9</ele>
        <time>2011-03-18T16:05:19Z</time>
      </trkpt>
      <trkpt lat="45.30347" lon="5.59858">
        <ele>190.5</ele>
        <time>2011-03-18T16:05:24Z</time>
      </trkpt>
      <trkpt lat="45.3035" lon="5.59835">
        <ele>190.2</ele>
        <time>2011-03-18T16:05:29Z</time>
      </trkpt>
    </trkseg>
  </trk>
</gpx>